<?xml version="1.0" encoding="UTF-8" standalone="no" ?>
<gpx xmlns="http://www.topografix.com/GPX/1/1" xmlns:xsi="http://www.w3.org/2001/XMLSchema-instance" xsi:schemaLocation="http://www.topografix.com/GPX/1/1 http://www.topografix.com/GPX/1/1/gpx.xsd" version="1.1" creator="VisuGPX - https://www.visugpx.com">
  <metadata>
    <name>Prayssas</name>
    <desc><![CDATA[Prayssas vers Gaujac]]></desc>
  </metadata>
  <trk>
    <name><![CDATA[Prayssas_1]]></name>
    <extensions>
      <line xmlns="http://www.topografix.com/GPX/gpx_style/0/2">
        <color>0000FF</color>
        <width>4</width>
      </line>
    </extensions>
    <trkseg>
      <trkpt lat="44.2882" lon="0.50757">
        <ele>169.1</ele>
        <time>2022-07-28T06:47:54.469Z</time>
      </trkpt>
      <trkpt lat="44.28818" lon="0.50766">
        <ele>169.3</ele>
        <time>2022-07-28T06:48:07.469Z</time>
      </trkpt>
      <trkpt lat="44.28821" lon="0.50772">
        <ele>169.3</ele>
        <time>2022-07-28T06:48:20.469Z</time>
      </trkpt>
      <trkpt lat="44.28816" lon="0.50785">
        <ele>169.6</ele>
        <time>2022-07-28T06:50:16.485Z</time>
      </trkpt>
      <trkpt lat="44.28813" lon="0.50792">
        <ele>169.7</ele>
        <time>2022-07-28T06:50:29.485Z</time>
      </trkpt>
      <trkpt lat="44.28802" lon="0.50799">
        <ele>170</ele>
        <time>2022-07-28T06:50:42.485Z</time>
      </trkpt>
      <trkpt lat="44.28789" lon="0.50798">
        <ele>170</ele>
        <time>2022-07-28T06:50:55.485Z</time>
      </trkpt>
      <trkpt lat="44.28772" lon="0.50796">
        <ele>170</ele>
        <time>2022-07-28T06:51:08.485Z</time>
      </trkpt>
      <trkpt lat="44.28755" lon="0.50793">
        <ele>170</ele>
        <time>2022-07-28T06:51:22.485Z</time>
      </trkpt>
      <trkpt lat="44.28743" lon="0.50792">
        <ele>170</ele>
        <time>2022-07-28T06:51:35.485Z</time>
      </trkpt>
      <trkpt lat="44.28727" lon="0.50788">
        <ele>170</ele>
        <time>2022-07-28T06:51:48.485Z</time>
      </trkpt>
      <trkpt lat="44.28712" lon="0.50785">
        <ele>170</ele>
        <time>2022-07-28T06:52:01.485Z</time>
      </trkpt>
      <trkpt lat="44.28696" lon="0.50785">
        <ele>170</ele>
        <time>2022-07-28T06:52:15.485Z</time>
      </trkpt>
      <trkpt lat="44.28682" lon="0.50786">
        <ele>169.7</ele>
        <time>2022-07-28T06:52:28.485Z</time>
      </trkpt>
      <trkpt lat="44.2867" lon="0.50778">
        <ele>169.2</ele>
        <time>2022-07-28T06:52:41.485Z</time>
      </trkpt>
      <trkpt lat="44.28661" lon="0.50769">
        <ele>168.4</ele>
        <time>2022-07-28T06:52:54.485Z</time>
      </trkpt>
      <trkpt lat="44.28644" lon="0.50758">
        <ele>167.5</ele>
        <time>2022-07-28T06:53:07.485Z</time>
      </trkpt>
      <trkpt lat="44.28632" lon="0.50745">
        <ele>166.2</ele>
        <time>2022-07-28T06:53:21.485Z</time>
      </trkpt>
      <trkpt lat="44.28619" lon="0.50732">
        <ele>164.6</ele>
        <time>2022-07-28T06:53:34.485Z</time>
      </trkpt>
      <trkpt lat="44.28609" lon="0.50718">
        <ele>163.9</ele>
        <time>2022-07-28T06:53:47.485Z</time>
      </trkpt>
      <trkpt lat="44.28598" lon="0.50704">
        <ele>162.4</ele>
        <time>2022-07-28T06:54:00.485Z</time>
      </trkpt>
      <trkpt lat="44.28588" lon="0.5069">
        <ele>161</ele>
        <time>2022-07-28T06:54:13.485Z</time>
      </trkpt>
      <trkpt lat="44.28578" lon="0.50677">
        <ele>160.5</ele>
        <time>2022-07-28T06:54:27.485Z</time>
      </trkpt>
      <trkpt lat="44.28573" lon="0.50657">
        <ele>160.9</ele>
        <time>2022-07-28T06:54:40.485Z</time>
      </trkpt>
      <trkpt lat="44.28567" lon="0.50644">
        <ele>160.5</ele>
        <time>2022-07-28T06:54:53.485Z</time>
      </trkpt>
      <trkpt lat="44.28559" lon="0.50624">
        <ele>160</ele>
        <time>2022-07-28T06:55:06.485Z</time>
      </trkpt>
      <trkpt lat="44.28551" lon="0.50605">
        <ele>159.6</ele>
        <time>2022-07-28T06:55:19.485Z</time>
      </trkpt>
      <trkpt lat="44.28544" lon="0.50583">
        <ele>159.4</ele>
        <time>2022-07-28T06:55:33.485Z</time>
      </trkpt>
      <trkpt lat="44.28537" lon="0.50565">
        <ele>159</ele>
        <time>2022-07-28T06:55:46.485Z</time>
      </trkpt>
      <trkpt lat="44.28533" lon="0.50546">
        <ele>159</ele>
        <time>2022-07-28T06:55:59.485Z</time>
      </trkpt>
      <trkpt lat="44.28526" lon="0.50525">
        <ele>158.9</ele>
        <time>2022-07-28T06:56:12.485Z</time>
      </trkpt>
      <trkpt lat="44.28518" lon="0.50507">
        <ele>158.7</ele>
        <time>2022-07-28T06:56:25.485Z</time>
      </trkpt>
      <trkpt lat="44.28509" lon="0.50486">
        <ele>158.3</ele>
        <time>2022-07-28T06:56:39.485Z</time>
      </trkpt>
      <trkpt lat="44.285" lon="0.50468">
        <ele>158</ele>
        <time>2022-07-28T06:56:52.485Z</time>
      </trkpt>
      <trkpt lat="44.28492" lon="0.5045">
        <ele>157.4</ele>
        <time>2022-07-28T06:57:05.485Z</time>
      </trkpt>
      <trkpt lat="44.28485" lon="0.50432">
        <ele>157.4</ele>
        <time>2022-07-28T06:57:18.485Z</time>
      </trkpt>
      <trkpt lat="44.28476" lon="0.50412">
        <ele>157.3</ele>
        <time>2022-07-28T06:57:32.485Z</time>
      </trkpt>
      <trkpt lat="44.28467" lon="0.50396">
        <ele>156.4</ele>
        <time>2022-07-28T06:57:45.485Z</time>
      </trkpt>
      <trkpt lat="44.28457" lon="0.50378">
        <ele>156.1</ele>
        <time>2022-07-28T06:57:58.485Z</time>
      </trkpt>
      <trkpt lat="44.28447" lon="0.50362">
        <ele>156.2</ele>
        <time>2022-07-28T06:58:11.485Z</time>
      </trkpt>
      <trkpt lat="44.28436" lon="0.50347">
        <ele>155.9</ele>
        <time>2022-07-28T06:58:24.485Z</time>
      </trkpt>
      <trkpt lat="44.28425" lon="0.50326">
        <ele>155.8</ele>
        <time>2022-07-28T06:58:38.485Z</time>
      </trkpt>
      <trkpt lat="44.28415" lon="0.50312">
        <ele>156.2</ele>
        <time>2022-07-28T06:58:51.485Z</time>
      </trkpt>
      <trkpt lat="44.28404" lon="0.50296">
        <ele>155.7</ele>
        <time>2022-07-28T06:59:04.485Z</time>
      </trkpt>
      <trkpt lat="44.28406" lon="0.50278">
        <ele>157.2</ele>
        <time>2022-07-28T07:01:59.485Z</time>
      </trkpt>
      <trkpt lat="44.28409" lon="0.50262">
        <ele>158.8</ele>
        <time>2022-07-28T07:02:12.485Z</time>
      </trkpt>
      <trkpt lat="44.28413" lon="0.50242">
        <ele>160.5</ele>
        <time>2022-07-28T07:02:25.485Z</time>
      </trkpt>
      <trkpt lat="44.2842" lon="0.50222">
        <ele>162</ele>
        <time>2022-07-28T07:02:38.485Z</time>
      </trkpt>
      <trkpt lat="44.28433" lon="0.50208">
        <ele>162.5</ele>
        <time>2022-07-28T07:02:52.485Z</time>
      </trkpt>
      <trkpt lat="44.28445" lon="0.50194">
        <ele>163</ele>
        <time>2022-07-28T07:03:06.485Z</time>
      </trkpt>
      <trkpt lat="44.28456" lon="0.50179">
        <ele>162.6</ele>
        <time>2022-07-28T07:03:19.485Z</time>
      </trkpt>
      <trkpt lat="44.2846" lon="0.50161">
        <ele>162.5</ele>
        <time>2022-07-28T07:03:32.485Z</time>
      </trkpt>
      <trkpt lat="44.28462" lon="0.50146">
        <ele>162.4</ele>
        <time>2022-07-28T07:03:45.485Z</time>
      </trkpt>
      <trkpt lat="44.28452" lon="0.50131">
        <ele>162.7</ele>
        <time>2022-07-28T07:03:59.485Z</time>
      </trkpt>
      <trkpt lat="44.28449" lon="0.50114">
        <ele>162.8</ele>
        <time>2022-07-28T07:04:12.485Z</time>
      </trkpt>
      <trkpt lat="44.2845" lon="0.50096">
        <ele>162.8</ele>
        <time>2022-07-28T07:04:25.485Z</time>
      </trkpt>
      <trkpt lat="44.28447" lon="0.50086">
        <ele>162.9</ele>
        <time>2022-07-28T07:04:38.485Z</time>
      </trkpt>
      <trkpt lat="44.28436" lon="0.50077">
        <ele>162.5</ele>
        <time>2022-07-28T07:04:51.485Z</time>
      </trkpt>
      <trkpt lat="44.28421" lon="0.50064">
        <ele>162</ele>
        <time>2022-07-28T07:05:05.485Z</time>
      </trkpt>
      <trkpt lat="44.28405" lon="0.50054">
        <ele>161.5</ele>
        <time>2022-07-28T07:05:18.485Z</time>
      </trkpt>
      <trkpt lat="44.28394" lon="0.50042">
        <ele>161.1</ele>
        <time>2022-07-28T07:05:31.485Z</time>
      </trkpt>
      <trkpt lat="44.28374" lon="0.50031">
        <ele>161</ele>
        <time>2022-07-28T07:06:04.505Z</time>
      </trkpt>
      <trkpt lat="44.2836" lon="0.50019">
        <ele>161</ele>
        <time>2022-07-28T07:06:17.505Z</time>
      </trkpt>
      <trkpt lat="44.28346" lon="0.50007">
        <ele>161</ele>
        <time>2022-07-28T07:06:31.505Z</time>
      </trkpt>
      <trkpt lat="44.28332" lon="0.49998">
        <ele>161</ele>
        <time>2022-07-28T07:06:44.505Z</time>
      </trkpt>
      <trkpt lat="44.28317" lon="0.49987">
        <ele>161.3</ele>
        <time>2022-07-28T07:06:57.505Z</time>
      </trkpt>
      <trkpt lat="44.28299" lon="0.49977">
        <ele>161.9</ele>
        <time>2022-07-28T07:07:10.505Z</time>
      </trkpt>
      <trkpt lat="44.28286" lon="0.49969">
        <ele>162</ele>
        <time>2022-07-28T07:07:23.505Z</time>
      </trkpt>
      <trkpt lat="44.28271" lon="0.49966">
        <ele>162.2</ele>
        <time>2022-07-28T07:07:37.505Z</time>
      </trkpt>
      <trkpt lat="44.28258" lon="0.49966">
        <ele>162.7</ele>
        <time>2022-07-28T07:07:50.505Z</time>
      </trkpt>
      <trkpt lat="44.28243" lon="0.49963">
        <ele>163.3</ele>
        <time>2022-07-28T07:08:03.505Z</time>
      </trkpt>
      <trkpt lat="44.28226" lon="0.49956">
        <ele>163.9</ele>
        <time>2022-07-28T07:08:16.505Z</time>
      </trkpt>
      <trkpt lat="44.28211" lon="0.49946">
        <ele>164</ele>
        <time>2022-07-28T07:08:29.505Z</time>
      </trkpt>
      <trkpt lat="44.28195" lon="0.49936">
        <ele>164</ele>
        <time>2022-07-28T07:08:43.505Z</time>
      </trkpt>
      <trkpt lat="44.28184" lon="0.49928">
        <ele>164</ele>
        <time>2022-07-28T07:08:56.505Z</time>
      </trkpt>
      <trkpt lat="44.28173" lon="0.49915">
        <ele>164</ele>
        <time>2022-07-28T07:09:09.505Z</time>
      </trkpt>
      <trkpt lat="44.2816" lon="0.49902">
        <ele>164</ele>
        <time>2022-07-28T07:09:22.505Z</time>
      </trkpt>
      <trkpt lat="44.28147" lon="0.49888">
        <ele>163.9</ele>
        <time>2022-07-28T07:09:36.505Z</time>
      </trkpt>
      <trkpt lat="44.28137" lon="0.49874">
        <ele>162.9</ele>
        <time>2022-07-28T07:09:49.505Z</time>
      </trkpt>
      <trkpt lat="44.28129" lon="0.49865">
        <ele>161.6</ele>
        <time>2022-07-28T07:10:02.505Z</time>
      </trkpt>
      <trkpt lat="44.28116" lon="0.49858">
        <ele>160.1</ele>
        <time>2022-07-28T07:10:15.505Z</time>
      </trkpt>
      <trkpt lat="44.28102" lon="0.49856">
        <ele>158.8</ele>
        <time>2022-07-28T07:10:28.505Z</time>
      </trkpt>
      <trkpt lat="44.28087" lon="0.49855">
        <ele>157.4</ele>
        <time>2022-07-28T07:10:42.505Z</time>
      </trkpt>
      <trkpt lat="44.28073" lon="0.49852">
        <ele>156.7</ele>
        <time>2022-07-28T07:10:55.505Z</time>
      </trkpt>
      <trkpt lat="44.28059" lon="0.4985">
        <ele>156.4</ele>
        <time>2022-07-28T07:11:08.505Z</time>
      </trkpt>
      <trkpt lat="44.28045" lon="0.49849">
        <ele>156.4</ele>
        <time>2022-07-28T07:11:21.505Z</time>
      </trkpt>
      <trkpt lat="44.28037" lon="0.49862">
        <ele>158.1</ele>
        <time>2022-07-28T07:11:34.505Z</time>
      </trkpt>
      <trkpt lat="44.28032" lon="0.49879">
        <ele>159.3</ele>
        <time>2022-07-28T07:11:48.505Z</time>
      </trkpt>
      <trkpt lat="44.28028" lon="0.49897">
        <ele>160.6</ele>
        <time>2022-07-28T07:12:01.505Z</time>
      </trkpt>
      <trkpt lat="44.28024" lon="0.49915">
        <ele>161.9</ele>
        <time>2022-07-28T07:12:14.505Z</time>
      </trkpt>
      <trkpt lat="44.2802" lon="0.49935">
        <ele>162.6</ele>
        <time>2022-07-28T07:12:27.505Z</time>
      </trkpt>
      <trkpt lat="44.28016" lon="0.49955">
        <ele>163.2</ele>
        <time>2022-07-28T07:12:40.505Z</time>
      </trkpt>
      <trkpt lat="44.28012" lon="0.49975">
        <ele>163.6</ele>
        <time>2022-07-28T07:12:54.505Z</time>
      </trkpt>
      <trkpt lat="44.28007" lon="0.49992">
        <ele>163.7</ele>
        <time>2022-07-28T07:13:07.505Z</time>
      </trkpt>
      <trkpt lat="44.28003" lon="0.50012">
        <ele>163.9</ele>
        <time>2022-07-28T07:13:20.505Z</time>
      </trkpt>
      <trkpt lat="44.28" lon="0.50032">
        <ele>164.1</ele>
        <time>2022-07-28T07:13:33.505Z</time>
      </trkpt>
      <trkpt lat="44.27996" lon="0.50051">
        <ele>164.8</ele>
        <time>2022-07-28T07:13:46.505Z</time>
      </trkpt>
      <trkpt lat="44.2799" lon="0.50059">
        <ele>165</ele>
        <time>2022-07-28T07:14:00.505Z</time>
      </trkpt>
      <trkpt lat="44.27976" lon="0.50058">
        <ele>165</ele>
        <time>2022-07-28T07:20:57.689Z</time>
      </trkpt>
      <trkpt lat="44.27962" lon="0.50053">
        <ele>164.9</ele>
        <time>2022-07-28T07:21:10.689Z</time>
      </trkpt>
      <trkpt lat="44.27947" lon="0.50047">
        <ele>164.7</ele>
        <time>2022-07-28T07:21:23.689Z</time>
      </trkpt>
      <trkpt lat="44.27933" lon="0.5004">
        <ele>164.3</ele>
        <time>2022-07-28T07:21:36.689Z</time>
      </trkpt>
      <trkpt lat="44.27919" lon="0.50035">
        <ele>164</ele>
        <time>2022-07-28T07:21:50.689Z</time>
      </trkpt>
      <trkpt lat="44.27904" lon="0.50032">
        <ele>164</ele>
        <time>2022-07-28T07:22:03.689Z</time>
      </trkpt>
      <trkpt lat="44.27891" lon="0.50026">
        <ele>164</ele>
        <time>2022-07-28T07:22:16.689Z</time>
      </trkpt>
      <trkpt lat="44.27877" lon="0.50017">
        <ele>164</ele>
        <time>2022-07-28T07:22:29.689Z</time>
      </trkpt>
      <trkpt lat="44.27862" lon="0.50009">
        <ele>164</ele>
        <time>2022-07-28T07:22:42.689Z</time>
      </trkpt>
      <trkpt lat="44.27847" lon="0.50001">
        <ele>164</ele>
        <time>2022-07-28T07:22:56.689Z</time>
      </trkpt>
      <trkpt lat="44.27833" lon="0.49995">
        <ele>163.8</ele>
        <time>2022-07-28T07:23:09.689Z</time>
      </trkpt>
      <trkpt lat="44.2782" lon="0.49985">
        <ele>163.7</ele>
        <time>2022-07-28T07:23:22.689Z</time>
      </trkpt>
      <trkpt lat="44.27806" lon="0.49978">
        <ele>164</ele>
        <time>2022-07-28T07:23:35.689Z</time>
      </trkpt>
      <trkpt lat="44.27792" lon="0.4997">
        <ele>163.9</ele>
        <time>2022-07-28T07:23:48.689Z</time>
      </trkpt>
      <trkpt lat="44.27777" lon="0.49964">
        <ele>163.7</ele>
        <time>2022-07-28T07:24:02.689Z</time>
      </trkpt>
      <trkpt lat="44.27765" lon="0.49957">
        <ele>163.7</ele>
        <time>2022-07-28T07:24:34.588Z</time>
      </trkpt>
      <trkpt lat="44.27752" lon="0.49946">
        <ele>163.9</ele>
        <time>2022-07-28T07:24:47.588Z</time>
      </trkpt>
      <trkpt lat="44.27742" lon="0.4993">
        <ele>164</ele>
        <time>2022-07-28T07:25:00.588Z</time>
      </trkpt>
      <trkpt lat="44.2773" lon="0.49913">
        <ele>163.9</ele>
        <time>2022-07-28T07:25:13.588Z</time>
      </trkpt>
      <trkpt lat="44.27716" lon="0.49899">
        <ele>163.3</ele>
        <time>2022-07-28T07:25:27.588Z</time>
      </trkpt>
      <trkpt lat="44.27701" lon="0.49891">
        <ele>163</ele>
        <time>2022-07-28T07:25:40.588Z</time>
      </trkpt>
      <trkpt lat="44.27687" lon="0.49884">
        <ele>162.7</ele>
        <time>2022-07-28T07:25:53.588Z</time>
      </trkpt>
      <trkpt lat="44.27674" lon="0.49877">
        <ele>162.2</ele>
        <time>2022-07-28T07:26:06.588Z</time>
      </trkpt>
      <trkpt lat="44.27657" lon="0.49871">
        <ele>161.7</ele>
        <time>2022-07-28T07:26:20.588Z</time>
      </trkpt>
      <trkpt lat="44.2764" lon="0.49865">
        <ele>161.1</ele>
        <time>2022-07-28T07:26:33.588Z</time>
      </trkpt>
      <trkpt lat="44.27632" lon="0.49846">
        <ele>160.4</ele>
        <time>2022-07-28T07:26:46.588Z</time>
      </trkpt>
      <trkpt lat="44.27631" lon="0.49825">
        <ele>160.4</ele>
        <time>2022-07-28T07:26:59.588Z</time>
      </trkpt>
      <trkpt lat="44.27626" lon="0.49805">
        <ele>159.7</ele>
        <time>2022-07-28T07:27:12.588Z</time>
      </trkpt>
      <trkpt lat="44.27617" lon="0.49784">
        <ele>159.8</ele>
        <time>2022-07-28T07:27:26.588Z</time>
      </trkpt>
      <trkpt lat="44.27608" lon="0.49764">
        <ele>160</ele>
        <time>2022-07-28T07:27:39.588Z</time>
      </trkpt>
      <trkpt lat="44.27602" lon="0.49746">
        <ele>159.8</ele>
        <time>2022-07-28T07:27:52.588Z</time>
      </trkpt>
      <trkpt lat="44.27594" lon="0.49731">
        <ele>159.4</ele>
        <time>2022-07-28T07:28:05.588Z</time>
      </trkpt>
      <trkpt lat="44.27583" lon="0.49716">
        <ele>159.2</ele>
        <time>2022-07-28T07:28:18.588Z</time>
      </trkpt>
      <trkpt lat="44.2757" lon="0.49699">
        <ele>158.3</ele>
        <time>2022-07-28T07:28:32.588Z</time>
      </trkpt>
      <trkpt lat="44.27558" lon="0.49685">
        <ele>157.2</ele>
        <time>2022-07-28T07:28:45.588Z</time>
      </trkpt>
      <trkpt lat="44.27546" lon="0.49672">
        <ele>156.6</ele>
        <time>2022-07-28T07:28:58.588Z</time>
      </trkpt>
      <trkpt lat="44.27534" lon="0.49658">
        <ele>156.2</ele>
        <time>2022-07-28T07:29:11.588Z</time>
      </trkpt>
      <trkpt lat="44.27523" lon="0.49644">
        <ele>155.8</ele>
        <time>2022-07-28T07:29:24.588Z</time>
      </trkpt>
      <trkpt lat="44.27511" lon="0.4963">
        <ele>155.1</ele>
        <time>2022-07-28T07:29:38.588Z</time>
      </trkpt>
      <trkpt lat="44.27499" lon="0.49617">
        <ele>154.2</ele>
        <time>2022-07-28T07:29:51.588Z</time>
      </trkpt>
      <trkpt lat="44.27485" lon="0.49606">
        <ele>153.2</ele>
        <time>2022-07-28T07:30:04.588Z</time>
      </trkpt>
      <trkpt lat="44.27472" lon="0.49606">
        <ele>152.8</ele>
        <time>2022-07-28T07:30:17.588Z</time>
      </trkpt>
      <trkpt lat="44.27461" lon="0.49611">
        <ele>153</ele>
        <time>2022-07-28T07:30:30.588Z</time>
      </trkpt>
      <trkpt lat="44.27442" lon="0.49615">
        <ele>152.8</ele>
        <time>2022-07-28T07:30:44.588Z</time>
      </trkpt>
      <trkpt lat="44.27428" lon="0.49608">
        <ele>153.1</ele>
        <time>2022-07-28T07:30:57.588Z</time>
      </trkpt>
      <trkpt lat="44.27417" lon="0.49595">
        <ele>154.1</ele>
        <time>2022-07-28T07:31:10.588Z</time>
      </trkpt>
      <trkpt lat="44.27406" lon="0.49584">
        <ele>155.4</ele>
        <time>2022-07-28T07:31:23.588Z</time>
      </trkpt>
      <trkpt lat="44.27395" lon="0.49579">
        <ele>156</ele>
        <time>2022-07-28T07:31:37.588Z</time>
      </trkpt>
      <trkpt lat="44.27382" lon="0.49574">
        <ele>157</ele>
        <time>2022-07-28T07:31:50.588Z</time>
      </trkpt>
      <trkpt lat="44.27369" lon="0.49568">
        <ele>158.2</ele>
        <time>2022-07-28T07:32:03.588Z</time>
      </trkpt>
      <trkpt lat="44.27353" lon="0.49564">
        <ele>158.8</ele>
        <time>2022-07-28T07:32:16.588Z</time>
      </trkpt>
      <trkpt lat="44.27338" lon="0.4956">
        <ele>158.7</ele>
        <time>2022-07-28T07:32:29.588Z</time>
      </trkpt>
      <trkpt lat="44.27323" lon="0.49552">
        <ele>159</ele>
        <time>2022-07-28T07:32:43.588Z</time>
      </trkpt>
      <trkpt lat="44.27313" lon="0.4954">
        <ele>159.8</ele>
        <time>2022-07-28T07:32:56.588Z</time>
      </trkpt>
      <trkpt lat="44.273" lon="0.49524">
        <ele>160.3</ele>
        <time>2022-07-28T07:33:09.588Z</time>
      </trkpt>
      <trkpt lat="44.27288" lon="0.49507">
        <ele>158.9</ele>
        <time>2022-07-28T07:33:22.588Z</time>
      </trkpt>
      <trkpt lat="44.27279" lon="0.49494">
        <ele>158.3</ele>
        <time>2022-07-28T07:33:35.588Z</time>
      </trkpt>
      <trkpt lat="44.2727" lon="0.49475">
        <ele>157.2</ele>
        <time>2022-07-28T07:34:20.596Z</time>
      </trkpt>
      <trkpt lat="44.27259" lon="0.49455">
        <ele>155.4</ele>
        <time>2022-07-28T07:34:33.596Z</time>
      </trkpt>
      <trkpt lat="44.27251" lon="0.49436">
        <ele>153.9</ele>
        <time>2022-07-28T07:34:46.596Z</time>
      </trkpt>
      <trkpt lat="44.27239" lon="0.49421">
        <ele>151.5</ele>
        <time>2022-07-28T07:34:59.596Z</time>
      </trkpt>
      <trkpt lat="44.27225" lon="0.49421">
        <ele>149.4</ele>
        <time>2022-07-28T07:35:12.596Z</time>
      </trkpt>
      <trkpt lat="44.27207" lon="0.49422">
        <ele>146.9</ele>
        <time>2022-07-28T07:35:26.596Z</time>
      </trkpt>
      <trkpt lat="44.27193" lon="0.4942">
        <ele>145</ele>
        <time>2022-07-28T07:35:39.596Z</time>
      </trkpt>
      <trkpt lat="44.27185" lon="0.49403">
        <ele>144</ele>
        <time>2022-07-28T07:35:52.596Z</time>
      </trkpt>
      <trkpt lat="44.2718" lon="0.49385">
        <ele>143.3</ele>
        <time>2022-07-28T07:36:05.596Z</time>
      </trkpt>
      <trkpt lat="44.27176" lon="0.49365">
        <ele>142.1</ele>
        <time>2022-07-28T07:36:18.596Z</time>
      </trkpt>
      <trkpt lat="44.27171" lon="0.49344">
        <ele>140.9</ele>
        <time>2022-07-28T07:36:32.596Z</time>
      </trkpt>
      <trkpt lat="44.27166" lon="0.49325">
        <ele>140</ele>
        <time>2022-07-28T07:36:45.596Z</time>
      </trkpt>
      <trkpt lat="44.27161" lon="0.49306">
        <ele>139.6</ele>
        <time>2022-07-28T07:36:58.596Z</time>
      </trkpt>
      <trkpt lat="44.27148" lon="0.49299">
        <ele>138.3</ele>
        <time>2022-07-28T07:37:11.596Z</time>
      </trkpt>
      <trkpt lat="44.27134" lon="0.49301">
        <ele>137.5</ele>
        <time>2022-07-28T07:37:25.596Z</time>
      </trkpt>
      <trkpt lat="44.27118" lon="0.49302">
        <ele>136.4</ele>
        <time>2022-07-28T07:37:38.596Z</time>
      </trkpt>
      <trkpt lat="44.27104" lon="0.49305">
        <ele>135.5</ele>
        <time>2022-07-28T07:37:51.596Z</time>
      </trkpt>
      <trkpt lat="44.2709" lon="0.49308">
        <ele>134.4</ele>
        <time>2022-07-28T07:38:04.596Z</time>
      </trkpt>
      <trkpt lat="44.27074" lon="0.49309">
        <ele>133.3</ele>
        <time>2022-07-28T07:38:17.596Z</time>
      </trkpt>
      <trkpt lat="44.27058" lon="0.49307">
        <ele>132.2</ele>
        <time>2022-07-28T07:38:31.596Z</time>
      </trkpt>
      <trkpt lat="44.27052" lon="0.49293">
        <ele>131.3</ele>
        <time>2022-07-28T07:38:44.596Z</time>
      </trkpt>
      <trkpt lat="44.27047" lon="0.49284">
        <ele>130.2</ele>
        <time>2022-07-28T07:38:57.596Z</time>
      </trkpt>
      <trkpt lat="44.27038" lon="0.49273">
        <ele>128.4</ele>
        <time>2022-07-28T07:39:10.596Z</time>
      </trkpt>
      <trkpt lat="44.27028" lon="0.49264">
        <ele>127</ele>
        <time>2022-07-28T07:39:23.596Z</time>
      </trkpt>
      <trkpt lat="44.27015" lon="0.49253">
        <ele>124.6</ele>
        <time>2022-07-28T07:39:37.596Z</time>
      </trkpt>
      <trkpt lat="44.27003" lon="0.49245">
        <ele>122.4</ele>
        <time>2022-07-28T07:39:50.596Z</time>
      </trkpt>
      <trkpt lat="44.26993" lon="0.49234">
        <ele>121.2</ele>
        <time>2022-07-28T07:40:03.596Z</time>
      </trkpt>
      <trkpt lat="44.26985" lon="0.49226">
        <ele>119.6</ele>
        <time>2022-07-28T07:40:16.596Z</time>
      </trkpt>
      <trkpt lat="44.26974" lon="0.49218">
        <ele>117.2</ele>
        <time>2022-07-28T07:40:29.596Z</time>
      </trkpt>
      <trkpt lat="44.26962" lon="0.49205">
        <ele>114.2</ele>
        <time>2022-07-28T07:40:43.596Z</time>
      </trkpt>
      <trkpt lat="44.26953" lon="0.49191">
        <ele>111.5</ele>
        <time>2022-07-28T07:40:56.596Z</time>
      </trkpt>
      <trkpt lat="44.26947" lon="0.49178">
        <ele>109.2</ele>
        <time>2022-07-28T07:41:09.596Z</time>
      </trkpt>
      <trkpt lat="44.26942" lon="0.49164">
        <ele>106.9</ele>
        <time>2022-07-28T07:41:22.596Z</time>
      </trkpt>
      <trkpt lat="44.26939" lon="0.49149">
        <ele>105</ele>
        <time>2022-07-28T07:41:35.596Z</time>
      </trkpt>
      <trkpt lat="44.2693" lon="0.49138">
        <ele>101.4</ele>
        <time>2022-07-28T07:41:49.596Z</time>
      </trkpt>
      <trkpt lat="44.26926" lon="0.49152">
        <ele>100.1</ele>
        <time>2022-07-28T07:42:02.596Z</time>
      </trkpt>
      <trkpt lat="44.26926" lon="0.49167">
        <ele>100.6</ele>
        <time>2022-07-28T07:42:15.596Z</time>
      </trkpt>
      <trkpt lat="44.26919" lon="0.49175">
        <ele>97.6</ele>
        <time>2022-07-28T07:42:28.596Z</time>
      </trkpt>
      <trkpt lat="44.26912" lon="0.49168">
        <ele>95.1</ele>
        <time>2022-07-28T07:42:41.596Z</time>
      </trkpt>
      <trkpt lat="44.26906" lon="0.49158">
        <ele>92.1</ele>
        <time>2022-07-28T07:42:55.596Z</time>
      </trkpt>
      <trkpt lat="44.269" lon="0.49143">
        <ele>90.1</ele>
        <time>2022-07-28T07:43:08.596Z</time>
      </trkpt>
      <trkpt lat="44.26896" lon="0.49127">
        <ele>88.2</ele>
        <time>2022-07-28T07:43:21.596Z</time>
      </trkpt>
      <trkpt lat="44.26891" lon="0.49118">
        <ele>86.1</ele>
        <time>2022-07-28T07:43:43.600Z</time>
      </trkpt>
      <trkpt lat="44.26885" lon="0.49101">
        <ele>83</ele>
        <time>2022-07-28T07:43:57.600Z</time>
      </trkpt>
      <trkpt lat="44.26887" lon="0.49077">
        <ele>82</ele>
        <time>2022-07-28T07:44:10.600Z</time>
      </trkpt>
      <trkpt lat="44.2689" lon="0.49055">
        <ele>81.2</ele>
        <time>2022-07-28T07:44:23.600Z</time>
      </trkpt>
      <trkpt lat="44.26893" lon="0.49038">
        <ele>81</ele>
        <time>2022-07-28T07:44:36.600Z</time>
      </trkpt>
      <trkpt lat="44.26895" lon="0.49022">
        <ele>80.1</ele>
        <time>2022-07-28T07:44:49.600Z</time>
      </trkpt>
      <trkpt lat="44.26891" lon="0.48996">
        <ele>76.3</ele>
        <time>2022-07-28T07:45:03.600Z</time>
      </trkpt>
      <trkpt lat="44.26889" lon="0.48978">
        <ele>74.5</ele>
        <time>2022-07-28T07:45:16.600Z</time>
      </trkpt>
      <trkpt lat="44.26885" lon="0.48962">
        <ele>72.4</ele>
        <time>2022-07-28T07:45:29.600Z</time>
      </trkpt>
      <trkpt lat="44.26883" lon="0.48944">
        <ele>70.8</ele>
        <time>2022-07-28T07:47:09.648Z</time>
      </trkpt>
      <trkpt lat="44.26879" lon="0.48932">
        <ele>69.6</ele>
        <time>2022-07-28T07:52:22.684Z</time>
      </trkpt>
      <trkpt lat="44.26878" lon="0.48915">
        <ele>68.8</ele>
        <time>2022-07-28T07:52:35.684Z</time>
      </trkpt>
      <trkpt lat="44.26874" lon="0.48895">
        <ele>68.4</ele>
        <time>2022-07-28T07:52:48.684Z</time>
      </trkpt>
      <trkpt lat="44.26868" lon="0.48875">
        <ele>68.1</ele>
        <time>2022-07-28T07:53:02.684Z</time>
      </trkpt>
      <trkpt lat="44.26861" lon="0.48856">
        <ele>68.2</ele>
        <time>2022-07-28T07:53:15.684Z</time>
      </trkpt>
      <trkpt lat="44.26855" lon="0.48838">
        <ele>68.4</ele>
        <time>2022-07-28T07:53:28.684Z</time>
      </trkpt>
      <trkpt lat="44.2685" lon="0.4882">
        <ele>68.1</ele>
        <time>2022-07-28T07:53:41.684Z</time>
      </trkpt>
      <trkpt lat="44.26843" lon="0.48801">
        <ele>68</ele>
        <time>2022-07-28T07:53:54.684Z</time>
      </trkpt>
      <trkpt lat="44.26835" lon="0.4878">
        <ele>68</ele>
        <time>2022-07-28T07:54:08.684Z</time>
      </trkpt>
      <trkpt lat="44.26828" lon="0.48763">
        <ele>68.2</ele>
        <time>2022-07-28T07:54:21.684Z</time>
      </trkpt>
      <trkpt lat="44.26824" lon="0.48752">
        <ele>68.3</ele>
        <time>2022-07-28T07:54:34.684Z</time>
      </trkpt>
      <trkpt lat="44.26823" lon="0.48748">
        <ele>68.3</ele>
        <time>2022-07-28T07:56:04.692Z</time>
      </trkpt>
      <trkpt lat="44.26811" lon="0.48733">
        <ele>68.1</ele>
        <time>2022-07-28T07:56:18.692Z</time>
      </trkpt>
      <trkpt lat="44.26803" lon="0.48719">
        <ele>68.2</ele>
        <time>2022-07-28T07:56:31.692Z</time>
      </trkpt>
      <trkpt lat="44.26795" lon="0.48701">
        <ele>69</ele>
        <time>2022-07-28T07:56:44.692Z</time>
      </trkpt>
      <trkpt lat="44.26783" lon="0.48681">
        <ele>68.7</ele>
        <time>2022-07-28T07:56:57.692Z</time>
      </trkpt>
      <trkpt lat="44.26772" lon="0.48662">
        <ele>69</ele>
        <time>2022-07-28T07:57:10.692Z</time>
      </trkpt>
      <trkpt lat="44.2676" lon="0.48643">
        <ele>69.7</ele>
        <time>2022-07-28T07:57:24.692Z</time>
      </trkpt>
      <trkpt lat="44.26749" lon="0.48626">
        <ele>70.2</ele>
        <time>2022-07-28T07:57:37.692Z</time>
      </trkpt>
      <trkpt lat="44.26739" lon="0.4861">
        <ele>70.1</ele>
        <time>2022-07-28T07:57:50.692Z</time>
      </trkpt>
      <trkpt lat="44.26729" lon="0.48594">
        <ele>69.5</ele>
        <time>2022-07-28T07:58:03.692Z</time>
      </trkpt>
      <trkpt lat="44.26719" lon="0.48576">
        <ele>69.5</ele>
        <time>2022-07-28T07:58:16.692Z</time>
      </trkpt>
      <trkpt lat="44.2671" lon="0.48554">
        <ele>69.8</ele>
        <time>2022-07-28T07:58:30.692Z</time>
      </trkpt>
      <trkpt lat="44.26702" lon="0.48535">
        <ele>69.6</ele>
        <time>2022-07-28T07:58:43.692Z</time>
      </trkpt>
      <trkpt lat="44.26693" lon="0.48515">
        <ele>69.3</ele>
        <time>2022-07-28T07:58:56.692Z</time>
      </trkpt>
      <trkpt lat="44.26686" lon="0.48495">
        <ele>69.2</ele>
        <time>2022-07-28T07:59:09.692Z</time>
      </trkpt>
      <trkpt lat="44.26682" lon="0.4848">
        <ele>69.4</ele>
        <time>2022-07-28T07:59:22.692Z</time>
      </trkpt>
      <trkpt lat="44.26684" lon="0.48468">
        <ele>70.1</ele>
        <time>2022-07-28T07:59:36.692Z</time>
      </trkpt>
      <trkpt lat="44.26687" lon="0.48466">
        <ele>70.5</ele>
        <time>2022-07-28T08:00:10.708Z</time>
      </trkpt>
      <trkpt lat="44.26703" lon="0.48463">
        <ele>72.9</ele>
        <time>2022-07-28T08:00:23.708Z</time>
      </trkpt>
      <trkpt lat="44.26719" lon="0.4846">
        <ele>75.4</ele>
        <time>2022-07-28T08:00:36.708Z</time>
      </trkpt>
      <trkpt lat="44.26734" lon="0.48457">
        <ele>78</ele>
        <time>2022-07-28T08:00:49.708Z</time>
      </trkpt>
      <trkpt lat="44.26747" lon="0.48455">
        <ele>80.2</ele>
        <time>2022-07-28T08:01:03.708Z</time>
      </trkpt>
      <trkpt lat="44.2676" lon="0.48458">
        <ele>83</ele>
        <time>2022-07-28T08:01:16.708Z</time>
      </trkpt>
      <trkpt lat="44.26773" lon="0.48465">
        <ele>85.6</ele>
        <time>2022-07-28T08:01:29.708Z</time>
      </trkpt>
      <trkpt lat="44.26784" lon="0.48479">
        <ele>87.8</ele>
        <time>2022-07-28T08:01:42.708Z</time>
      </trkpt>
      <trkpt lat="44.26796" lon="0.48496">
        <ele>90.7</ele>
        <time>2022-07-28T08:01:56.708Z</time>
      </trkpt>
      <trkpt lat="44.26798" lon="0.4851">
        <ele>90.2</ele>
        <time>2022-07-28T08:02:09.708Z</time>
      </trkpt>
      <trkpt lat="44.26807" lon="0.48525">
        <ele>91.5</ele>
        <time>2022-07-28T08:02:42.712Z</time>
      </trkpt>
      <trkpt lat="44.26816" lon="0.48538">
        <ele>91.8</ele>
        <time>2022-07-28T08:02:55.712Z</time>
      </trkpt>
      <trkpt lat="44.26827" lon="0.48552">
        <ele>93</ele>
        <time>2022-07-28T08:03:08.712Z</time>
      </trkpt>
      <trkpt lat="44.26835" lon="0.48557">
        <ele>93.9</ele>
        <time>2022-07-28T08:03:36.731Z</time>
      </trkpt>
      <trkpt lat="44.26848" lon="0.48555">
        <ele>95.2</ele>
        <time>2022-07-28T08:03:49.731Z</time>
      </trkpt>
      <trkpt lat="44.26857" lon="0.48544">
        <ele>96.8</ele>
        <time>2022-07-28T08:04:02.731Z</time>
      </trkpt>
      <trkpt lat="44.2686" lon="0.48531">
        <ele>98.6</ele>
        <time>2022-07-28T08:04:15.731Z</time>
      </trkpt>
      <trkpt lat="44.26855" lon="0.48515">
        <ele>99.8</ele>
        <time>2022-07-28T08:04:28.731Z</time>
      </trkpt>
      <trkpt lat="44.26848" lon="0.48495">
        <ele>101.5</ele>
        <time>2022-07-28T08:04:42.731Z</time>
      </trkpt>
      <trkpt lat="44.26842" lon="0.48481">
        <ele>103.2</ele>
        <time>2022-07-28T08:04:55.731Z</time>
      </trkpt>
      <trkpt lat="44.26836" lon="0.48467">
        <ele>104.1</ele>
        <time>2022-07-28T08:05:08.731Z</time>
      </trkpt>
      <trkpt lat="44.26832" lon="0.48451">
        <ele>104.9</ele>
        <time>2022-07-28T08:05:21.731Z</time>
      </trkpt>
      <trkpt lat="44.26827" lon="0.48435">
        <ele>106.3</ele>
        <time>2022-07-28T08:05:34.731Z</time>
      </trkpt>
      <trkpt lat="44.26823" lon="0.48419">
        <ele>108.1</ele>
        <time>2022-07-28T08:05:48.731Z</time>
      </trkpt>
      <trkpt lat="44.26827" lon="0.484">
        <ele>113.1</ele>
        <time>2022-07-28T08:06:01.731Z</time>
      </trkpt>
      <trkpt lat="44.26827" lon="0.48383">
        <ele>116</ele>
        <time>2022-07-28T08:06:14.731Z</time>
      </trkpt>
      <trkpt lat="44.26828" lon="0.48362">
        <ele>119.4</ele>
        <time>2022-07-28T08:06:27.731Z</time>
      </trkpt>
      <trkpt lat="44.2683" lon="0.48344">
        <ele>121.1</ele>
        <time>2022-07-28T08:06:40.731Z</time>
      </trkpt>
      <trkpt lat="44.26833" lon="0.48325">
        <ele>122.5</ele>
        <time>2022-07-28T08:06:54.731Z</time>
      </trkpt>
      <trkpt lat="44.26834" lon="0.48307">
        <ele>122.2</ele>
        <time>2022-07-28T08:07:07.731Z</time>
      </trkpt>
      <trkpt lat="44.26834" lon="0.48289">
        <ele>121.1</ele>
        <time>2022-07-28T08:07:20.731Z</time>
      </trkpt>
      <trkpt lat="44.26836" lon="0.4827">
        <ele>120.7</ele>
        <time>2022-07-28T08:07:33.731Z</time>
      </trkpt>
      <trkpt lat="44.26837" lon="0.48249">
        <ele>120.7</ele>
        <time>2022-07-28T08:07:47.731Z</time>
      </trkpt>
      <trkpt lat="44.26839" lon="0.4823">
        <ele>121.3</ele>
        <time>2022-07-28T08:08:00.731Z</time>
      </trkpt>
      <trkpt lat="44.26841" lon="0.48214">
        <ele>122.3</ele>
        <time>2022-07-28T08:08:13.731Z</time>
      </trkpt>
      <trkpt lat="44.26842" lon="0.482">
        <ele>123.1</ele>
        <time>2022-07-28T08:08:26.731Z</time>
      </trkpt>
      <trkpt lat="44.26847" lon="0.48205">
        <ele>125.3</ele>
        <time>2022-07-28T08:08:53.761Z</time>
      </trkpt>
      <trkpt lat="44.26851" lon="0.48224">
        <ele>126.5</ele>
        <time>2022-07-28T08:09:07.761Z</time>
      </trkpt>
      <trkpt lat="44.26854" lon="0.48246">
        <ele>127.7</ele>
        <time>2022-07-28T08:09:20.761Z</time>
      </trkpt>
      <trkpt lat="44.26854" lon="0.48265">
        <ele>128.7</ele>
        <time>2022-07-28T08:09:33.761Z</time>
      </trkpt>
      <trkpt lat="44.26856" lon="0.48283">
        <ele>130</ele>
        <time>2022-07-28T08:09:46.761Z</time>
      </trkpt>
      <trkpt lat="44.26857" lon="0.48301">
        <ele>130.6</ele>
        <time>2022-07-28T08:09:59.761Z</time>
      </trkpt>
      <trkpt lat="44.26859" lon="0.48317">
        <ele>131.1</ele>
        <time>2022-07-28T08:10:26.666Z</time>
      </trkpt>
      <trkpt lat="44.26861" lon="0.48336">
        <ele>131.9</ele>
        <time>2022-07-28T08:10:39.666Z</time>
      </trkpt>
      <trkpt lat="44.26863" lon="0.48352">
        <ele>132.2</ele>
        <time>2022-07-28T08:10:52.666Z</time>
      </trkpt>
      <trkpt lat="44.2686" lon="0.48367">
        <ele>131.4</ele>
        <time>2022-07-28T08:11:05.666Z</time>
      </trkpt>
      <trkpt lat="44.26861" lon="0.48384">
        <ele>131.2</ele>
        <time>2022-07-28T08:11:28.689Z</time>
      </trkpt>
      <trkpt lat="44.26865" lon="0.48406">
        <ele>128.4</ele>
        <time>2022-07-28T08:11:42.689Z</time>
      </trkpt>
      <trkpt lat="44.26872" lon="0.48422">
        <ele>127.3</ele>
        <time>2022-07-28T08:11:55.689Z</time>
      </trkpt>
      <trkpt lat="44.26882" lon="0.48433">
        <ele>128</ele>
        <time>2022-07-28T08:12:08.689Z</time>
      </trkpt>
      <trkpt lat="44.26897" lon="0.48439">
        <ele>131</ele>
        <time>2022-07-28T08:12:21.689Z</time>
      </trkpt>
      <trkpt lat="44.2691" lon="0.48446">
        <ele>133</ele>
        <time>2022-07-28T08:12:34.689Z</time>
      </trkpt>
      <trkpt lat="44.26924" lon="0.48453">
        <ele>133.1</ele>
        <time>2022-07-28T08:12:48.689Z</time>
      </trkpt>
      <trkpt lat="44.26941" lon="0.48455">
        <ele>134.3</ele>
        <time>2022-07-28T08:13:01.689Z</time>
      </trkpt>
      <trkpt lat="44.26957" lon="0.48453">
        <ele>135.5</ele>
        <time>2022-07-28T08:13:14.689Z</time>
      </trkpt>
      <trkpt lat="44.26972" lon="0.48447">
        <ele>137.2</ele>
        <time>2022-07-28T08:13:27.689Z</time>
      </trkpt>
      <trkpt lat="44.26988" lon="0.48443">
        <ele>138.2</ele>
        <time>2022-07-28T08:13:41.689Z</time>
      </trkpt>
      <trkpt lat="44.27002" lon="0.48445">
        <ele>138.1</ele>
        <time>2022-07-28T08:13:54.689Z</time>
      </trkpt>
      <trkpt lat="44.27013" lon="0.48449">
        <ele>137.7</ele>
        <time>2022-07-28T08:14:07.689Z</time>
      </trkpt>
      <trkpt lat="44.27024" lon="0.48456">
        <ele>137.2</ele>
        <time>2022-07-28T08:16:04.700Z</time>
      </trkpt>
      <trkpt lat="44.27033" lon="0.48465">
        <ele>136.2</ele>
        <time>2022-07-28T08:16:17.700Z</time>
      </trkpt>
      <trkpt lat="44.27047" lon="0.48475">
        <ele>135.1</ele>
        <time>2022-07-28T08:16:31.700Z</time>
      </trkpt>
      <trkpt lat="44.27058" lon="0.48478">
        <ele>134.8</ele>
        <time>2022-07-28T08:16:44.700Z</time>
      </trkpt>
      <trkpt lat="44.27073" lon="0.48486">
        <ele>133.9</ele>
        <time>2022-07-28T08:16:57.700Z</time>
      </trkpt>
      <trkpt lat="44.27085" lon="0.48491">
        <ele>133.7</ele>
        <time>2022-07-28T08:17:10.700Z</time>
      </trkpt>
      <trkpt lat="44.27101" lon="0.48499">
        <ele>133.4</ele>
        <time>2022-07-28T08:17:23.700Z</time>
      </trkpt>
      <trkpt lat="44.27116" lon="0.485">
        <ele>133.9</ele>
        <time>2022-07-28T08:17:37.700Z</time>
      </trkpt>
      <trkpt lat="44.27133" lon="0.48502">
        <ele>133.5</ele>
        <time>2022-07-28T08:17:50.700Z</time>
      </trkpt>
      <trkpt lat="44.27147" lon="0.485">
        <ele>133.5</ele>
        <time>2022-07-28T08:18:03.700Z</time>
      </trkpt>
      <trkpt lat="44.27162" lon="0.48499">
        <ele>132.4</ele>
        <time>2022-07-28T08:18:16.700Z</time>
      </trkpt>
      <trkpt lat="44.27176" lon="0.48499">
        <ele>131.7</ele>
        <time>2022-07-28T08:18:29.700Z</time>
      </trkpt>
      <trkpt lat="44.27192" lon="0.48498">
        <ele>131.2</ele>
        <time>2022-07-28T08:18:43.700Z</time>
      </trkpt>
      <trkpt lat="44.27207" lon="0.485">
        <ele>131</ele>
        <time>2022-07-28T08:18:56.700Z</time>
      </trkpt>
      <trkpt lat="44.2722" lon="0.48503">
        <ele>129.6</ele>
        <time>2022-07-28T08:19:09.700Z</time>
      </trkpt>
      <trkpt lat="44.27233" lon="0.48508">
        <ele>128.2</ele>
        <time>2022-07-28T08:19:22.700Z</time>
      </trkpt>
      <trkpt lat="44.27248" lon="0.48512">
        <ele>127.6</ele>
        <time>2022-07-28T08:19:35.700Z</time>
      </trkpt>
      <trkpt lat="44.27264" lon="0.4852">
        <ele>127.3</ele>
        <time>2022-07-28T08:19:49.700Z</time>
      </trkpt>
      <trkpt lat="44.27281" lon="0.4853">
        <ele>128</ele>
        <time>2022-07-28T08:20:02.700Z</time>
      </trkpt>
      <trkpt lat="44.2729" lon="0.48525">
        <ele>130.7</ele>
        <time>2022-07-28T08:20:15.700Z</time>
      </trkpt>
      <trkpt lat="44.27291" lon="0.4852">
        <ele>131.4</ele>
        <time>2022-07-28T08:20:28.700Z</time>
      </trkpt>
      <trkpt lat="44.27294" lon="0.48506">
        <ele>132.8</ele>
        <time>2022-07-28T08:20:41.700Z</time>
      </trkpt>
      <trkpt lat="44.27293" lon="0.48515">
        <ele>132</ele>
        <time>2022-07-28T08:21:08.700Z</time>
      </trkpt>
      <trkpt lat="44.27293" lon="0.48494">
        <ele>133.9</ele>
        <time>2022-07-28T08:21:21.700Z</time>
      </trkpt>
      <trkpt lat="44.27293" lon="0.48474">
        <ele>135.3</ele>
        <time>2022-07-28T08:21:34.700Z</time>
      </trkpt>
      <trkpt lat="44.27293" lon="0.48452">
        <ele>136.6</ele>
        <time>2022-07-28T08:21:48.700Z</time>
      </trkpt>
      <trkpt lat="44.27293" lon="0.48432">
        <ele>137.9</ele>
        <time>2022-07-28T08:22:01.700Z</time>
      </trkpt>
      <trkpt lat="44.27294" lon="0.48413">
        <ele>139.2</ele>
        <time>2022-07-28T08:22:14.700Z</time>
      </trkpt>
      <trkpt lat="44.27293" lon="0.48391">
        <ele>140.4</ele>
        <time>2022-07-28T08:22:27.700Z</time>
      </trkpt>
      <trkpt lat="44.27293" lon="0.4837">
        <ele>142.6</ele>
        <time>2022-07-28T08:22:40.700Z</time>
      </trkpt>
      <trkpt lat="44.27294" lon="0.48346">
        <ele>144.7</ele>
        <time>2022-07-28T08:22:54.700Z</time>
      </trkpt>
      <trkpt lat="44.27295" lon="0.48326">
        <ele>146.4</ele>
        <time>2022-07-28T08:23:07.700Z</time>
      </trkpt>
      <trkpt lat="44.27298" lon="0.48307">
        <ele>148.6</ele>
        <time>2022-07-28T08:23:20.700Z</time>
      </trkpt>
      <trkpt lat="44.27302" lon="0.48288">
        <ele>150.8</ele>
        <time>2022-07-28T08:23:33.700Z</time>
      </trkpt>
      <trkpt lat="44.27305" lon="0.48268">
        <ele>153</ele>
        <time>2022-07-28T08:23:46.700Z</time>
      </trkpt>
      <trkpt lat="44.27308" lon="0.48248">
        <ele>155</ele>
        <time>2022-07-28T08:24:00.700Z</time>
      </trkpt>
      <trkpt lat="44.27311" lon="0.48229">
        <ele>156.4</ele>
        <time>2022-07-28T08:24:13.700Z</time>
      </trkpt>
      <trkpt lat="44.27312" lon="0.48214">
        <ele>156.8</ele>
        <time>2022-07-28T08:24:26.700Z</time>
      </trkpt>
      <trkpt lat="44.27313" lon="0.48208">
        <ele>156.7</ele>
        <time>2022-07-28T08:24:45.726Z</time>
      </trkpt>
      <trkpt lat="44.27314" lon="0.48194">
        <ele>156.7</ele>
        <time>2022-07-28T08:24:58.726Z</time>
      </trkpt>
      <trkpt lat="44.27315" lon="0.48193">
        <ele>156.6</ele>
        <time>2022-07-28T08:25:29.782Z</time>
      </trkpt>
      <trkpt lat="44.27326" lon="0.48196">
        <ele>156.3</ele>
        <time>2022-07-28T08:26:04.808Z</time>
      </trkpt>
      <trkpt lat="44.2734" lon="0.48201">
        <ele>155.6</ele>
        <time>2022-07-28T08:26:17.808Z</time>
      </trkpt>
      <trkpt lat="44.27353" lon="0.48207">
        <ele>155.2</ele>
        <time>2022-07-28T08:26:30.808Z</time>
      </trkpt>
      <trkpt lat="44.27367" lon="0.48214">
        <ele>155.4</ele>
        <time>2022-07-28T08:26:43.808Z</time>
      </trkpt>
      <trkpt lat="44.27381" lon="0.48219">
        <ele>155.7</ele>
        <time>2022-07-28T08:26:57.808Z</time>
      </trkpt>
      <trkpt lat="44.27385" lon="0.48219">
        <ele>155.8</ele>
        <time>2022-07-28T08:27:27.830Z</time>
      </trkpt>
      <trkpt lat="44.27394" lon="0.4822">
        <ele>155.9</ele>
        <time>2022-07-28T08:27:40.830Z</time>
      </trkpt>
      <trkpt lat="44.27408" lon="0.48219">
        <ele>155.8</ele>
        <time>2022-07-28T08:27:53.830Z</time>
      </trkpt>
      <trkpt lat="44.27419" lon="0.4822">
        <ele>156</ele>
        <time>2022-07-28T08:28:07.830Z</time>
      </trkpt>
      <trkpt lat="44.27433" lon="0.48218">
        <ele>156.4</ele>
        <time>2022-07-28T08:28:57.852Z</time>
      </trkpt>
      <trkpt lat="44.27449" lon="0.48219">
        <ele>157.2</ele>
        <time>2022-07-28T08:29:10.852Z</time>
      </trkpt>
      <trkpt lat="44.27464" lon="0.48221">
        <ele>158.4</ele>
        <time>2022-07-28T08:29:23.852Z</time>
      </trkpt>
      <trkpt lat="44.27479" lon="0.48224">
        <ele>159.4</ele>
        <time>2022-07-28T08:29:36.852Z</time>
      </trkpt>
      <trkpt lat="44.2749" lon="0.48235">
        <ele>159.4</ele>
        <time>2022-07-28T08:29:50.852Z</time>
      </trkpt>
      <trkpt lat="44.27491" lon="0.4825">
        <ele>158.3</ele>
        <time>2022-07-28T08:30:03.852Z</time>
      </trkpt>
      <trkpt lat="44.2749" lon="0.48269">
        <ele>156.2</ele>
        <time>2022-07-28T08:30:16.852Z</time>
      </trkpt>
      <trkpt lat="44.27487" lon="0.48289">
        <ele>153.8</ele>
        <time>2022-07-28T08:30:29.852Z</time>
      </trkpt>
      <trkpt lat="44.27483" lon="0.48311">
        <ele>151.4</ele>
        <time>2022-07-28T08:30:42.852Z</time>
      </trkpt>
      <trkpt lat="44.27481" lon="0.48333">
        <ele>149.7</ele>
        <time>2022-07-28T08:31:22.852Z</time>
      </trkpt>
      <trkpt lat="44.27481" lon="0.48357">
        <ele>147.1</ele>
        <time>2022-07-28T08:31:35.852Z</time>
      </trkpt>
      <trkpt lat="44.2748" lon="0.48375">
        <ele>145.2</ele>
        <time>2022-07-28T08:31:48.852Z</time>
      </trkpt>
      <trkpt lat="44.27484" lon="0.48398">
        <ele>143.4</ele>
        <time>2022-07-28T08:32:02.852Z</time>
      </trkpt>
      <trkpt lat="44.27487" lon="0.48422">
        <ele>141.7</ele>
        <time>2022-07-28T08:32:15.852Z</time>
      </trkpt>
      <trkpt lat="44.2749" lon="0.48446">
        <ele>140.1</ele>
        <time>2022-07-28T08:32:28.852Z</time>
      </trkpt>
      <trkpt lat="44.27491" lon="0.4847">
        <ele>137.9</ele>
        <time>2022-07-28T08:32:41.852Z</time>
      </trkpt>
      <trkpt lat="44.27491" lon="0.48495">
        <ele>136</ele>
        <time>2022-07-28T08:32:54.852Z</time>
      </trkpt>
      <trkpt lat="44.27489" lon="0.48521">
        <ele>134.9</ele>
        <time>2022-07-28T08:33:08.852Z</time>
      </trkpt>
      <trkpt lat="44.27488" lon="0.48544">
        <ele>133.4</ele>
        <time>2022-07-28T08:33:21.852Z</time>
      </trkpt>
      <trkpt lat="44.27488" lon="0.48565">
        <ele>132.2</ele>
        <time>2022-07-28T08:33:34.852Z</time>
      </trkpt>
      <trkpt lat="44.27486" lon="0.48586">
        <ele>131.2</ele>
        <time>2022-07-28T08:33:47.852Z</time>
      </trkpt>
      <trkpt lat="44.27481" lon="0.48608">
        <ele>128.4</ele>
        <time>2022-07-28T08:34:01.852Z</time>
      </trkpt>
      <trkpt lat="44.27468" lon="0.48609">
        <ele>126.8</ele>
        <time>2022-07-28T08:34:14.852Z</time>
      </trkpt>
      <trkpt lat="44.27456" lon="0.48605">
        <ele>125.7</ele>
        <time>2022-07-28T08:34:27.852Z</time>
      </trkpt>
      <trkpt lat="44.27443" lon="0.48596">
        <ele>126</ele>
        <time>2022-07-28T08:34:40.852Z</time>
      </trkpt>
      <trkpt lat="44.27426" lon="0.48588">
        <ele>124.5</ele>
        <time>2022-07-28T08:34:53.852Z</time>
      </trkpt>
      <trkpt lat="44.27413" lon="0.48581">
        <ele>123.9</ele>
        <time>2022-07-28T08:35:07.852Z</time>
      </trkpt>
      <trkpt lat="44.274" lon="0.48571">
        <ele>123.9</ele>
        <time>2022-07-28T08:35:20.852Z</time>
      </trkpt>
      <trkpt lat="44.27385" lon="0.48566">
        <ele>123.1</ele>
        <time>2022-07-28T08:35:33.852Z</time>
      </trkpt>
      <trkpt lat="44.2737" lon="0.4856">
        <ele>123.4</ele>
        <time>2022-07-28T08:35:46.852Z</time>
      </trkpt>
      <trkpt lat="44.27354" lon="0.48562">
        <ele>122.1</ele>
        <time>2022-07-28T08:35:59.852Z</time>
      </trkpt>
      <trkpt lat="44.27339" lon="0.4857">
        <ele>119.4</ele>
        <time>2022-07-28T08:36:13.852Z</time>
      </trkpt>
      <trkpt lat="44.27324" lon="0.48579">
        <ele>115.7</ele>
        <time>2022-07-28T08:36:26.852Z</time>
      </trkpt>
      <trkpt lat="44.27316" lon="0.48593">
        <ele>109.6</ele>
        <time>2022-07-28T08:36:39.852Z</time>
      </trkpt>
      <trkpt lat="44.27327" lon="0.48591">
        <ele>111.3</ele>
        <time>2022-07-28T08:36:52.852Z</time>
      </trkpt>
      <trkpt lat="44.2734" lon="0.48591">
        <ele>112.4</ele>
        <time>2022-07-28T08:37:05.852Z</time>
      </trkpt>
      <trkpt lat="44.27356" lon="0.48606">
        <ele>108.2</ele>
        <time>2022-07-28T08:37:19.852Z</time>
      </trkpt>
      <trkpt lat="44.27366" lon="0.48619">
        <ele>105</ele>
        <time>2022-07-28T08:37:32.852Z</time>
      </trkpt>
      <trkpt lat="44.27377" lon="0.48634">
        <ele>102.2</ele>
        <time>2022-07-28T08:37:45.852Z</time>
      </trkpt>
      <trkpt lat="44.27388" lon="0.48651">
        <ele>99.4</ele>
        <time>2022-07-28T08:37:58.852Z</time>
      </trkpt>
      <trkpt lat="44.27399" lon="0.48668">
        <ele>96.4</ele>
        <time>2022-07-28T08:38:11.852Z</time>
      </trkpt>
      <trkpt lat="44.27409" lon="0.48687">
        <ele>93.6</ele>
        <time>2022-07-28T08:38:25.852Z</time>
      </trkpt>
      <trkpt lat="44.27422" lon="0.48703">
        <ele>91.6</ele>
        <time>2022-07-28T08:38:38.852Z</time>
      </trkpt>
      <trkpt lat="44.27433" lon="0.48713">
        <ele>91</ele>
        <time>2022-07-28T08:38:51.852Z</time>
      </trkpt>
      <trkpt lat="44.27444" lon="0.48724">
        <ele>89.5</ele>
        <time>2022-07-28T08:39:04.852Z</time>
      </trkpt>
      <trkpt lat="44.27453" lon="0.48736">
        <ele>88.3</ele>
        <time>2022-07-28T08:39:18.852Z</time>
      </trkpt>
      <trkpt lat="44.27466" lon="0.48751">
        <ele>86.9</ele>
        <time>2022-07-28T08:39:31.852Z</time>
      </trkpt>
      <trkpt lat="44.27477" lon="0.48769">
        <ele>84.5</ele>
        <time>2022-07-28T08:39:44.852Z</time>
      </trkpt>
      <trkpt lat="44.27479" lon="0.48794">
        <ele>81.2</ele>
        <time>2022-07-28T08:39:57.852Z</time>
      </trkpt>
      <trkpt lat="44.27496" lon="0.48816">
        <ele>81.8</ele>
        <time>2022-07-28T08:42:40.860Z</time>
      </trkpt>
      <trkpt lat="44.27511" lon="0.48825">
        <ele>82.9</ele>
        <time>2022-07-28T08:42:54.860Z</time>
      </trkpt>
      <trkpt lat="44.27523" lon="0.48836">
        <ele>83.4</ele>
        <time>2022-07-28T08:43:07.860Z</time>
      </trkpt>
      <trkpt lat="44.27529" lon="0.48843">
        <ele>83.8</ele>
        <time>2022-07-28T08:43:20.860Z</time>
      </trkpt>
      <trkpt lat="44.27539" lon="0.48847">
        <ele>84.5</ele>
        <time>2022-07-28T08:43:41.868Z</time>
      </trkpt>
      <trkpt lat="44.27551" lon="0.48855">
        <ele>85.1</ele>
        <time>2022-07-28T08:43:54.868Z</time>
      </trkpt>
      <trkpt lat="44.27564" lon="0.48866">
        <ele>85.4</ele>
        <time>2022-07-28T08:44:08.868Z</time>
      </trkpt>
      <trkpt lat="44.27568" lon="0.48871">
        <ele>85.4</ele>
        <time>2022-07-28T08:45:04.900Z</time>
      </trkpt>
      <trkpt lat="44.27577" lon="0.48878">
        <ele>85.5</ele>
        <time>2022-07-28T08:45:51.791Z</time>
      </trkpt>
      <trkpt lat="44.27592" lon="0.48886">
        <ele>85.3</ele>
        <time>2022-07-28T08:46:04.791Z</time>
      </trkpt>
      <trkpt lat="44.27609" lon="0.48886">
        <ele>85.3</ele>
        <time>2022-07-28T08:46:18.791Z</time>
      </trkpt>
      <trkpt lat="44.27626" lon="0.48889">
        <ele>84.5</ele>
        <time>2022-07-28T08:46:31.791Z</time>
      </trkpt>
      <trkpt lat="44.27644" lon="0.48898">
        <ele>83.9</ele>
        <time>2022-07-28T08:46:44.791Z</time>
      </trkpt>
      <trkpt lat="44.27653" lon="0.48904">
        <ele>84</ele>
        <time>2022-07-28T08:46:57.791Z</time>
      </trkpt>
      <trkpt lat="44.27663" lon="0.48923">
        <ele>83.7</ele>
        <time>2022-07-28T08:47:40.811Z</time>
      </trkpt>
      <trkpt lat="44.27674" lon="0.48935">
        <ele>83.5</ele>
        <time>2022-07-28T08:47:54.811Z</time>
      </trkpt>
      <trkpt lat="44.27687" lon="0.48943">
        <ele>83.2</ele>
        <time>2022-07-28T08:48:07.811Z</time>
      </trkpt>
      <trkpt lat="44.27703" lon="0.48948">
        <ele>83</ele>
        <time>2022-07-28T08:48:20.811Z</time>
      </trkpt>
      <trkpt lat="44.27718" lon="0.48955">
        <ele>82.7</ele>
        <time>2022-07-28T08:48:33.811Z</time>
      </trkpt>
      <trkpt lat="44.27733" lon="0.48961">
        <ele>82.5</ele>
        <time>2022-07-28T08:48:46.811Z</time>
      </trkpt>
      <trkpt lat="44.27748" lon="0.48968">
        <ele>81.6</ele>
        <time>2022-07-28T08:49:00.811Z</time>
      </trkpt>
      <trkpt lat="44.27762" lon="0.48976">
        <ele>81.3</ele>
        <time>2022-07-28T08:49:13.811Z</time>
      </trkpt>
      <trkpt lat="44.27776" lon="0.48983">
        <ele>81.2</ele>
        <time>2022-07-28T08:49:26.811Z</time>
      </trkpt>
      <trkpt lat="44.27785" lon="0.48989">
        <ele>81</ele>
        <time>2022-07-28T08:49:39.811Z</time>
      </trkpt>
      <trkpt lat="44.27792" lon="0.48993">
        <ele>80.7</ele>
        <time>2022-07-28T08:49:52.811Z</time>
      </trkpt>
      <trkpt lat="44.27806" lon="0.49005">
        <ele>80</ele>
        <time>2022-07-28T08:50:06.811Z</time>
      </trkpt>
      <trkpt lat="44.2782" lon="0.49008">
        <ele>80.9</ele>
        <time>2022-07-28T08:50:19.811Z</time>
      </trkpt>
      <trkpt lat="44.27836" lon="0.49007">
        <ele>81.9</ele>
        <time>2022-07-28T08:50:32.811Z</time>
      </trkpt>
      <trkpt lat="44.27852" lon="0.49008">
        <ele>82.4</ele>
        <time>2022-07-28T08:50:45.811Z</time>
      </trkpt>
      <trkpt lat="44.27868" lon="0.4901">
        <ele>83</ele>
        <time>2022-07-28T08:51:14.839Z</time>
      </trkpt>
      <trkpt lat="44.27881" lon="0.49013">
        <ele>83.3</ele>
        <time>2022-07-28T08:51:28.839Z</time>
      </trkpt>
      <trkpt lat="44.27895" lon="0.49016">
        <ele>83.9</ele>
        <time>2022-07-28T08:51:41.839Z</time>
      </trkpt>
      <trkpt lat="44.2791" lon="0.49026">
        <ele>83.8</ele>
        <time>2022-07-28T08:51:54.839Z</time>
      </trkpt>
      <trkpt lat="44.27923" lon="0.49037">
        <ele>83.5</ele>
        <time>2022-07-28T08:52:07.839Z</time>
      </trkpt>
      <trkpt lat="44.27928" lon="0.49042">
        <ele>83.4</ele>
        <time>2022-07-28T08:52:21.839Z</time>
      </trkpt>
      <trkpt lat="44.27937" lon="0.49051">
        <ele>82.5</ele>
        <time>2022-07-28T08:52:34.839Z</time>
      </trkpt>
      <trkpt lat="44.27939" lon="0.49062">
        <ele>81.4</ele>
        <time>2022-07-28T08:52:47.839Z</time>
      </trkpt>
      <trkpt lat="44.27945" lon="0.49064">
        <ele>81.4</ele>
        <time>2022-07-28T08:53:44.863Z</time>
      </trkpt>
      <trkpt lat="44.27958" lon="0.49067">
        <ele>81.9</ele>
        <time>2022-07-28T08:53:57.863Z</time>
      </trkpt>
      <trkpt lat="44.27974" lon="0.49072">
        <ele>82.4</ele>
        <time>2022-07-28T08:54:11.863Z</time>
      </trkpt>
      <trkpt lat="44.2799" lon="0.49076">
        <ele>83.4</ele>
        <time>2022-07-28T08:54:24.863Z</time>
      </trkpt>
      <trkpt lat="44.28006" lon="0.49078">
        <ele>84.7</ele>
        <time>2022-07-28T08:54:37.863Z</time>
      </trkpt>
      <trkpt lat="44.28021" lon="0.49076">
        <ele>86.5</ele>
        <time>2022-07-28T08:54:50.863Z</time>
      </trkpt>
      <trkpt lat="44.28033" lon="0.4909">
        <ele>85.8</ele>
        <time>2022-07-28T08:55:03.863Z</time>
      </trkpt>
      <trkpt lat="44.28047" lon="0.491">
        <ele>85.9</ele>
        <time>2022-07-28T08:55:17.863Z</time>
      </trkpt>
      <trkpt lat="44.28057" lon="0.49107">
        <ele>85.7</ele>
        <time>2022-07-28T08:55:30.863Z</time>
      </trkpt>
      <trkpt lat="44.28075" lon="0.49108">
        <ele>86.3</ele>
        <time>2022-07-28T08:56:17.895Z</time>
      </trkpt>
      <trkpt lat="44.28086" lon="0.49111">
        <ele>86.2</ele>
        <time>2022-07-28T08:56:30.895Z</time>
      </trkpt>
      <trkpt lat="44.28098" lon="0.49113">
        <ele>86.8</ele>
        <time>2022-07-28T08:56:43.895Z</time>
      </trkpt>
      <trkpt lat="44.28112" lon="0.49109">
        <ele>88.5</ele>
        <time>2022-07-28T08:56:57.895Z</time>
      </trkpt>
      <trkpt lat="44.28125" lon="0.49106">
        <ele>90</ele>
        <time>2022-07-28T08:57:10.895Z</time>
      </trkpt>
      <trkpt lat="44.28139" lon="0.49107">
        <ele>90.7</ele>
        <time>2022-07-28T08:57:23.895Z</time>
      </trkpt>
      <trkpt lat="44.2815" lon="0.49105">
        <ele>90</ele>
        <time>2022-07-28T08:57:36.895Z</time>
      </trkpt>
      <trkpt lat="44.28163" lon="0.49098">
        <ele>89.8</ele>
        <time>2022-07-28T08:57:49.895Z</time>
      </trkpt>
      <trkpt lat="44.28175" lon="0.49079">
        <ele>91.2</ele>
        <time>2022-07-28T08:58:03.895Z</time>
      </trkpt>
      <trkpt lat="44.28187" lon="0.49067">
        <ele>90.3</ele>
        <time>2022-07-28T08:58:16.895Z</time>
      </trkpt>
      <trkpt lat="44.28201" lon="0.49073">
        <ele>89.6</ele>
        <time>2022-07-28T08:58:29.895Z</time>
      </trkpt>
      <trkpt lat="44.28211" lon="0.4908">
        <ele>90.6</ele>
        <time>2022-07-28T08:58:42.895Z</time>
      </trkpt>
      <trkpt lat="44.28222" lon="0.49091">
        <ele>90.9</ele>
        <time>2022-07-28T08:58:55.895Z</time>
      </trkpt>
      <trkpt lat="44.28235" lon="0.49101">
        <ele>90.8</ele>
        <time>2022-07-28T08:59:09.895Z</time>
      </trkpt>
      <trkpt lat="44.28249" lon="0.49104">
        <ele>91.9</ele>
        <time>2022-07-28T08:59:22.895Z</time>
      </trkpt>
      <trkpt lat="44.28263" lon="0.49115">
        <ele>93.1</ele>
        <time>2022-07-28T08:59:35.895Z</time>
      </trkpt>
      <trkpt lat="44.28277" lon="0.49124">
        <ele>94.1</ele>
        <time>2022-07-28T08:59:48.895Z</time>
      </trkpt>
      <trkpt lat="44.28292" lon="0.49134">
        <ele>94.4</ele>
        <time>2022-07-28T09:00:02.895Z</time>
      </trkpt>
      <trkpt lat="44.28306" lon="0.49141">
        <ele>95.4</ele>
        <time>2022-07-28T09:00:15.895Z</time>
      </trkpt>
      <trkpt lat="44.28311" lon="0.49144">
        <ele>95.2</ele>
        <time>2022-07-28T09:00:28.895Z</time>
      </trkpt>
      <trkpt lat="44.2831" lon="0.49141">
        <ele>95.8</ele>
        <time>2022-07-28T09:03:08.943Z</time>
      </trkpt>
      <trkpt lat="44.28301" lon="0.49133">
        <ele>96.1</ele>
        <time>2022-07-28T09:03:21.943Z</time>
      </trkpt>
      <trkpt lat="44.28289" lon="0.49117">
        <ele>97.1</ele>
        <time>2022-07-28T09:03:35.943Z</time>
      </trkpt>
      <trkpt lat="44.28278" lon="0.491">
        <ele>98.6</ele>
        <time>2022-07-28T09:03:48.943Z</time>
      </trkpt>
      <trkpt lat="44.28269" lon="0.49082">
        <ele>99.3</ele>
        <time>2022-07-28T09:04:01.943Z</time>
      </trkpt>
      <trkpt lat="44.28263" lon="0.49063">
        <ele>100.8</ele>
        <time>2022-07-28T09:04:14.943Z</time>
      </trkpt>
      <trkpt lat="44.28256" lon="0.49041">
        <ele>101.4</ele>
        <time>2022-07-28T09:04:27.943Z</time>
      </trkpt>
      <trkpt lat="44.28252" lon="0.49019">
        <ele>102</ele>
        <time>2022-07-28T09:04:41.943Z</time>
      </trkpt>
      <trkpt lat="44.28249" lon="0.48999">
        <ele>102.7</ele>
        <time>2022-07-28T09:04:54.943Z</time>
      </trkpt>
      <trkpt lat="44.28251" lon="0.48978">
        <ele>104</ele>
        <time>2022-07-28T09:05:07.943Z</time>
      </trkpt>
      <trkpt lat="44.28259" lon="0.48958">
        <ele>105.1</ele>
        <time>2022-07-28T09:05:20.943Z</time>
      </trkpt>
      <trkpt lat="44.28269" lon="0.48937">
        <ele>107.2</ele>
        <time>2022-07-28T09:05:33.943Z</time>
      </trkpt>
      <trkpt lat="44.28277" lon="0.48918">
        <ele>109.8</ele>
        <time>2022-07-28T09:05:47.943Z</time>
      </trkpt>
      <trkpt lat="44.28282" lon="0.48903">
        <ele>111.4</ele>
        <time>2022-07-28T09:06:00.943Z</time>
      </trkpt>
      <trkpt lat="44.2829" lon="0.48884">
        <ele>113.2</ele>
        <time>2022-07-28T09:06:13.943Z</time>
      </trkpt>
      <trkpt lat="44.28294" lon="0.48867">
        <ele>113.8</ele>
        <time>2022-07-28T09:06:26.943Z</time>
      </trkpt>
      <trkpt lat="44.28304" lon="0.48855">
        <ele>116.5</ele>
        <time>2022-07-28T09:06:39.943Z</time>
      </trkpt>
      <trkpt lat="44.28305" lon="0.48864">
        <ele>117.1</ele>
        <time>2022-07-28T09:06:53.943Z</time>
      </trkpt>
      <trkpt lat="44.28305" lon="0.48879">
        <ele>117.4</ele>
        <time>2022-07-28T09:07:39.959Z</time>
      </trkpt>
      <trkpt lat="44.28306" lon="0.48897">
        <ele>118.5</ele>
        <time>2022-07-28T09:07:52.959Z</time>
      </trkpt>
      <trkpt lat="44.28305" lon="0.48917">
        <ele>118.9</ele>
        <time>2022-07-28T09:08:05.959Z</time>
      </trkpt>
      <trkpt lat="44.28302" lon="0.48943">
        <ele>117.1</ele>
        <time>2022-07-28T09:08:19.959Z</time>
      </trkpt>
      <trkpt lat="44.28299" lon="0.48966">
        <ele>115.2</ele>
        <time>2022-07-28T09:08:32.959Z</time>
      </trkpt>
      <trkpt lat="44.28298" lon="0.48985">
        <ele>114.1</ele>
        <time>2022-07-28T09:08:45.959Z</time>
      </trkpt>
      <trkpt lat="44.28303" lon="0.49001">
        <ele>114.3</ele>
        <time>2022-07-28T09:08:58.959Z</time>
      </trkpt>
      <trkpt lat="44.28312" lon="0.49017">
        <ele>115.1</ele>
        <time>2022-07-28T09:09:11.959Z</time>
      </trkpt>
      <trkpt lat="44.28325" lon="0.49034">
        <ele>115.4</ele>
        <time>2022-07-28T09:09:25.959Z</time>
      </trkpt>
      <trkpt lat="44.28339" lon="0.49045">
        <ele>115.6</ele>
        <time>2022-07-28T09:09:38.959Z</time>
      </trkpt>
      <trkpt lat="44.28354" lon="0.49053">
        <ele>115.9</ele>
        <time>2022-07-28T09:09:51.959Z</time>
      </trkpt>
      <trkpt lat="44.28368" lon="0.49058">
        <ele>116</ele>
        <time>2022-07-28T09:10:04.959Z</time>
      </trkpt>
      <trkpt lat="44.28381" lon="0.49064">
        <ele>115.9</ele>
        <time>2022-07-28T09:10:17.959Z</time>
      </trkpt>
      <trkpt lat="44.28398" lon="0.49074">
        <ele>114.9</ele>
        <time>2022-07-28T09:10:31.959Z</time>
      </trkpt>
      <trkpt lat="44.28413" lon="0.49086">
        <ele>113.8</ele>
        <time>2022-07-28T09:10:44.959Z</time>
      </trkpt>
      <trkpt lat="44.28425" lon="0.49089">
        <ele>113.5</ele>
        <time>2022-07-28T09:10:57.959Z</time>
      </trkpt>
      <trkpt lat="44.2844" lon="0.4908">
        <ele>115.9</ele>
        <time>2022-07-28T09:11:10.959Z</time>
      </trkpt>
      <trkpt lat="44.28452" lon="0.49072">
        <ele>117.8</ele>
        <time>2022-07-28T09:11:23.959Z</time>
      </trkpt>
      <trkpt lat="44.28466" lon="0.49064">
        <ele>119.6</ele>
        <time>2022-07-28T09:11:37.959Z</time>
      </trkpt>
      <trkpt lat="44.28479" lon="0.49057">
        <ele>121.4</ele>
        <time>2022-07-28T09:11:50.959Z</time>
      </trkpt>
      <trkpt lat="44.28486" lon="0.49054">
        <ele>122.1</ele>
        <time>2022-07-28T09:12:03.959Z</time>
      </trkpt>
      <trkpt lat="44.28481" lon="0.49058">
        <ele>121</ele>
        <time>2022-07-28T09:12:42.842Z</time>
      </trkpt>
      <trkpt lat="44.28469" lon="0.49056">
        <ele>122</ele>
        <time>2022-07-28T09:13:20.850Z</time>
      </trkpt>
      <trkpt lat="44.28461" lon="0.49058">
        <ele>121.6</ele>
        <time>2022-07-28T09:13:34.850Z</time>
      </trkpt>
      <trkpt lat="44.28456" lon="0.49051">
        <ele>124</ele>
        <time>2022-07-28T09:14:16.870Z</time>
      </trkpt>
      <trkpt lat="44.28464" lon="0.49039">
        <ele>127.6</ele>
        <time>2022-07-28T09:14:47.886Z</time>
      </trkpt>
      <trkpt lat="44.28467" lon="0.49031">
        <ele>130</ele>
        <time>2022-07-28T09:15:00.886Z</time>
      </trkpt>
      <trkpt lat="44.28467" lon="0.49017">
        <ele>134.3</ele>
        <time>2022-07-28T09:15:14.886Z</time>
      </trkpt>
      <trkpt lat="44.28469" lon="0.49004">
        <ele>138</ele>
        <time>2022-07-28T09:15:27.886Z</time>
      </trkpt>
      <trkpt lat="44.28472" lon="0.48994">
        <ele>139.9</ele>
        <time>2022-07-28T09:15:40.886Z</time>
      </trkpt>
      <trkpt lat="44.28473" lon="0.48989">
        <ele>140.6</ele>
        <time>2022-07-28T09:16:26.910Z</time>
      </trkpt>
      <trkpt lat="44.28475" lon="0.48985">
        <ele>141.1</ele>
        <time>2022-07-28T09:17:10.934Z</time>
      </trkpt>
      <trkpt lat="44.28471" lon="0.48964">
        <ele>143.6</ele>
        <time>2022-07-28T09:18:04.954Z</time>
      </trkpt>
      <trkpt lat="44.28472" lon="0.48946">
        <ele>144.9</ele>
        <time>2022-07-28T09:18:17.954Z</time>
      </trkpt>
      <trkpt lat="44.28474" lon="0.48925">
        <ele>146.4</ele>
        <time>2022-07-28T09:18:30.954Z</time>
      </trkpt>
      <trkpt lat="44.28475" lon="0.48906">
        <ele>147.5</ele>
        <time>2022-07-28T09:18:43.954Z</time>
      </trkpt>
      <trkpt lat="44.28478" lon="0.48886">
        <ele>148.2</ele>
        <time>2022-07-28T09:18:56.954Z</time>
      </trkpt>
      <trkpt lat="44.28479" lon="0.48863">
        <ele>148.7</ele>
        <time>2022-07-28T09:19:10.954Z</time>
      </trkpt>
      <trkpt lat="44.2848" lon="0.48842">
        <ele>149.5</ele>
        <time>2022-07-28T09:19:23.954Z</time>
      </trkpt>
      <trkpt lat="44.28482" lon="0.48822">
        <ele>150</ele>
        <time>2022-07-28T09:19:36.954Z</time>
      </trkpt>
      <trkpt lat="44.28483" lon="0.48801">
        <ele>150.2</ele>
        <time>2022-07-28T09:19:49.954Z</time>
      </trkpt>
      <trkpt lat="44.28486" lon="0.4878">
        <ele>150.4</ele>
        <time>2022-07-28T09:20:02.954Z</time>
      </trkpt>
      <trkpt lat="44.28499" lon="0.48775">
        <ele>151.9</ele>
        <time>2022-07-28T09:20:16.954Z</time>
      </trkpt>
      <trkpt lat="44.28515" lon="0.4878">
        <ele>153.6</ele>
        <time>2022-07-28T09:20:29.954Z</time>
      </trkpt>
      <trkpt lat="44.28528" lon="0.48787">
        <ele>155</ele>
        <time>2022-07-28T09:20:42.954Z</time>
      </trkpt>
      <trkpt lat="44.28542" lon="0.48793">
        <ele>155.5</ele>
        <time>2022-07-28T09:20:55.954Z</time>
      </trkpt>
      <trkpt lat="44.28556" lon="0.48789">
        <ele>156.2</ele>
        <time>2022-07-28T09:21:08.954Z</time>
      </trkpt>
      <trkpt lat="44.28569" lon="0.48781">
        <ele>155.8</ele>
        <time>2022-07-28T09:21:22.954Z</time>
      </trkpt>
      <trkpt lat="44.28581" lon="0.48774">
        <ele>155.9</ele>
        <time>2022-07-28T09:21:35.954Z</time>
      </trkpt>
      <trkpt lat="44.28595" lon="0.48767">
        <ele>156.2</ele>
        <time>2022-07-28T09:21:48.954Z</time>
      </trkpt>
      <trkpt lat="44.28606" lon="0.48761">
        <ele>156.5</ele>
        <time>2022-07-28T09:22:01.954Z</time>
      </trkpt>
      <trkpt lat="44.28624" lon="0.48763">
        <ele>155</ele>
        <time>2022-07-28T09:22:15.954Z</time>
      </trkpt>
      <trkpt lat="44.2864" lon="0.4876">
        <ele>154.5</ele>
        <time>2022-07-28T09:22:28.954Z</time>
      </trkpt>
      <trkpt lat="44.28655" lon="0.48759">
        <ele>154.2</ele>
        <time>2022-07-28T09:22:41.954Z</time>
      </trkpt>
      <trkpt lat="44.28672" lon="0.48753">
        <ele>154.8</ele>
        <time>2022-07-28T09:22:54.954Z</time>
      </trkpt>
      <trkpt lat="44.28688" lon="0.48754">
        <ele>155.2</ele>
        <time>2022-07-28T09:23:07.954Z</time>
      </trkpt>
      <trkpt lat="44.28703" lon="0.48763">
        <ele>155.2</ele>
        <time>2022-07-28T09:23:21.954Z</time>
      </trkpt>
      <trkpt lat="44.28719" lon="0.48771">
        <ele>155.8</ele>
        <time>2022-07-28T09:23:34.954Z</time>
      </trkpt>
      <trkpt lat="44.28735" lon="0.48781">
        <ele>156.9</ele>
        <time>2022-07-28T09:23:47.954Z</time>
      </trkpt>
      <trkpt lat="44.28747" lon="0.48789">
        <ele>158.4</ele>
        <time>2022-07-28T09:24:00.954Z</time>
      </trkpt>
      <trkpt lat="44.28754" lon="0.48785">
        <ele>159.8</ele>
        <time>2022-07-28T09:24:13.954Z</time>
      </trkpt>
      <trkpt lat="44.28758" lon="0.48778">
        <ele>161.1</ele>
        <time>2022-07-28T09:24:27.954Z</time>
      </trkpt>
      <trkpt lat="44.28763" lon="0.48771">
        <ele>162.6</ele>
        <time>2022-07-28T09:24:40.954Z</time>
      </trkpt>
      <trkpt lat="44.28773" lon="0.48769">
        <ele>164</ele>
        <time>2022-07-28T09:24:53.954Z</time>
      </trkpt>
      <trkpt lat="44.28784" lon="0.48779">
        <ele>164.6</ele>
        <time>2022-07-28T09:25:06.954Z</time>
      </trkpt>
      <trkpt lat="44.28794" lon="0.4879">
        <ele>165.6</ele>
        <time>2022-07-28T09:25:19.954Z</time>
      </trkpt>
      <trkpt lat="44.28807" lon="0.48802">
        <ele>167.1</ele>
        <time>2022-07-28T09:25:33.954Z</time>
      </trkpt>
      <trkpt lat="44.28819" lon="0.48808">
        <ele>168</ele>
        <time>2022-07-28T09:25:46.954Z</time>
      </trkpt>
      <trkpt lat="44.28832" lon="0.48811">
        <ele>169.1</ele>
        <time>2022-07-28T09:25:59.954Z</time>
      </trkpt>
      <trkpt lat="44.28836" lon="0.48814">
        <ele>169.6</ele>
        <time>2022-07-28T09:26:12.954Z</time>
      </trkpt>
      <trkpt lat="44.28839" lon="0.48812">
        <ele>169.8</ele>
        <time>2022-07-28T09:27:12.986Z</time>
      </trkpt>
      <trkpt lat="44.28838" lon="0.48805">
        <ele>169.5</ele>
        <time>2022-07-28T09:28:20.990Z</time>
      </trkpt>
      <trkpt lat="44.28847" lon="0.48791">
        <ele>170.2</ele>
        <time>2022-07-28T09:28:33.990Z</time>
      </trkpt>
      <trkpt lat="44.28855" lon="0.48783">
        <ele>170.7</ele>
        <time>2022-07-28T09:28:46.990Z</time>
      </trkpt>
      <trkpt lat="44.28869" lon="0.48777">
        <ele>171.5</ele>
        <time>2022-07-28T09:28:59.990Z</time>
      </trkpt>
      <trkpt lat="44.28884" lon="0.48774">
        <ele>172.5</ele>
        <time>2022-07-28T09:29:13.990Z</time>
      </trkpt>
      <trkpt lat="44.28898" lon="0.4877">
        <ele>173.1</ele>
        <time>2022-07-28T09:29:26.990Z</time>
      </trkpt>
      <trkpt lat="44.28912" lon="0.48763">
        <ele>173.8</ele>
        <time>2022-07-28T09:29:39.990Z</time>
      </trkpt>
      <trkpt lat="44.28921" lon="0.48761">
        <ele>174.1</ele>
        <time>2022-07-28T09:29:52.990Z</time>
      </trkpt>
      <trkpt lat="44.28924" lon="0.48753">
        <ele>174.2</ele>
        <time>2022-07-28T09:30:05.990Z</time>
      </trkpt>
      <trkpt lat="44.28933" lon="0.48737">
        <ele>174.9</ele>
        <time>2022-07-28T09:30:19.990Z</time>
      </trkpt>
      <trkpt lat="44.28938" lon="0.48719">
        <ele>175.6</ele>
        <time>2022-07-28T09:30:32.990Z</time>
      </trkpt>
      <trkpt lat="44.28941" lon="0.48704">
        <ele>176.4</ele>
        <time>2022-07-28T09:30:45.990Z</time>
      </trkpt>
      <trkpt lat="44.28948" lon="0.48697">
        <ele>176.9</ele>
        <time>2022-07-28T09:30:58.990Z</time>
      </trkpt>
      <trkpt lat="44.28954" lon="0.48679">
        <ele>177.2</ele>
        <time>2022-07-28T09:31:11.990Z</time>
      </trkpt>
      <trkpt lat="44.28958" lon="0.48661">
        <ele>177.8</ele>
        <time>2022-07-28T09:31:25.990Z</time>
      </trkpt>
      <trkpt lat="44.28964" lon="0.48641">
        <ele>178.9</ele>
        <time>2022-07-28T09:31:38.990Z</time>
      </trkpt>
      <trkpt lat="44.28968" lon="0.48621">
        <ele>179.6</ele>
        <time>2022-07-28T09:31:51.990Z</time>
      </trkpt>
      <trkpt lat="44.2897" lon="0.48598">
        <ele>180</ele>
        <time>2022-07-28T09:32:04.990Z</time>
      </trkpt>
      <trkpt lat="44.28974" lon="0.48577">
        <ele>180.1</ele>
        <time>2022-07-28T09:32:17.990Z</time>
      </trkpt>
      <trkpt lat="44.28979" lon="0.48558">
        <ele>180.4</ele>
        <time>2022-07-28T09:32:31.990Z</time>
      </trkpt>
      <trkpt lat="44.28981" lon="0.4854">
        <ele>180.9</ele>
        <time>2022-07-28T09:32:44.990Z</time>
      </trkpt>
      <trkpt lat="44.28987" lon="0.48522">
        <ele>181.4</ele>
        <time>2022-07-28T09:32:57.990Z</time>
      </trkpt>
      <trkpt lat="44.28996" lon="0.4853">
        <ele>180.2</ele>
        <time>2022-07-28T09:33:10.990Z</time>
      </trkpt>
      <trkpt lat="44.29007" lon="0.48542">
        <ele>178.2</ele>
        <time>2022-07-28T09:33:23.990Z</time>
      </trkpt>
      <trkpt lat="44.29014" lon="0.4856">
        <ele>176.4</ele>
        <time>2022-07-28T09:33:37.990Z</time>
      </trkpt>
      <trkpt lat="44.29021" lon="0.48577">
        <ele>175</ele>
        <time>2022-07-28T09:33:50.990Z</time>
      </trkpt>
      <trkpt lat="44.29028" lon="0.48596">
        <ele>174</ele>
        <time>2022-07-28T09:34:03.990Z</time>
      </trkpt>
      <trkpt lat="44.29034" lon="0.48612">
        <ele>172.8</ele>
        <time>2022-07-28T09:34:16.990Z</time>
      </trkpt>
      <trkpt lat="44.29041" lon="0.48629">
        <ele>171.3</ele>
        <time>2022-07-28T09:34:29.990Z</time>
      </trkpt>
      <trkpt lat="44.29046" lon="0.4865">
        <ele>170.1</ele>
        <time>2022-07-28T09:34:43.990Z</time>
      </trkpt>
      <trkpt lat="44.29045" lon="0.4867">
        <ele>169.9</ele>
        <time>2022-07-28T09:34:56.990Z</time>
      </trkpt>
      <trkpt lat="44.29038" lon="0.48691">
        <ele>171.5</ele>
        <time>2022-07-28T09:35:45.990Z</time>
      </trkpt>
      <trkpt lat="44.29044" lon="0.4871">
        <ele>170.7</ele>
        <time>2022-07-28T09:35:58.990Z</time>
      </trkpt>
      <trkpt lat="44.29044" lon="0.48729">
        <ele>170.8</ele>
        <time>2022-07-28T09:37:22.014Z</time>
      </trkpt>
      <trkpt lat="44.29042" lon="0.48728">
        <ele>171</ele>
        <time>2022-07-28T09:38:19.929Z</time>
      </trkpt>
      <trkpt lat="44.29048" lon="0.48738">
        <ele>170.5</ele>
        <time>2022-07-28T09:38:39.949Z</time>
      </trkpt>
      <trkpt lat="44.29053" lon="0.48759">
        <ele>169.9</ele>
        <time>2022-07-28T09:38:52.949Z</time>
      </trkpt>
      <trkpt lat="44.29053" lon="0.48771">
        <ele>169.4</ele>
        <time>2022-07-28T09:39:05.949Z</time>
      </trkpt>
      <trkpt lat="44.29052" lon="0.4878">
        <ele>169.1</ele>
        <time>2022-07-28T09:39:19.949Z</time>
      </trkpt>
      <trkpt lat="44.29051" lon="0.4879">
        <ele>169.1</ele>
        <time>2022-07-28T09:39:32.949Z</time>
      </trkpt>
      <trkpt lat="44.29052" lon="0.48804">
        <ele>169</ele>
        <time>2022-07-28T09:39:45.949Z</time>
      </trkpt>
      <trkpt lat="44.29051" lon="0.48817">
        <ele>169</ele>
        <time>2022-07-28T09:39:58.949Z</time>
      </trkpt>
      <trkpt lat="44.29051" lon="0.48834">
        <ele>169</ele>
        <time>2022-07-28T09:40:11.949Z</time>
      </trkpt>
      <trkpt lat="44.29052" lon="0.4885">
        <ele>168.5</ele>
        <time>2022-07-28T09:40:25.949Z</time>
      </trkpt>
      <trkpt lat="44.29052" lon="0.48867">
        <ele>168.1</ele>
        <time>2022-07-28T09:40:38.949Z</time>
      </trkpt>
      <trkpt lat="44.2905" lon="0.48888">
        <ele>168.2</ele>
        <time>2022-07-28T09:40:51.949Z</time>
      </trkpt>
      <trkpt lat="44.2905" lon="0.48909">
        <ele>168.2</ele>
        <time>2022-07-28T09:41:04.949Z</time>
      </trkpt>
      <trkpt lat="44.29048" lon="0.48931">
        <ele>167.9</ele>
        <time>2022-07-28T09:41:17.949Z</time>
      </trkpt>
      <trkpt lat="44.29044" lon="0.48953">
        <ele>167.5</ele>
        <time>2022-07-28T09:41:31.949Z</time>
      </trkpt>
      <trkpt lat="44.29043" lon="0.48969">
        <ele>167</ele>
        <time>2022-07-28T09:41:44.949Z</time>
      </trkpt>
      <trkpt lat="44.29042" lon="0.48988">
        <ele>166.4</ele>
        <time>2022-07-28T09:41:57.949Z</time>
      </trkpt>
      <trkpt lat="44.29045" lon="0.49008">
        <ele>165.1</ele>
        <time>2022-07-28T09:42:10.949Z</time>
      </trkpt>
      <trkpt lat="44.29045" lon="0.49025">
        <ele>163.4</ele>
        <time>2022-07-28T09:42:23.949Z</time>
      </trkpt>
      <trkpt lat="44.29049" lon="0.49045">
        <ele>161.5</ele>
        <time>2022-07-28T09:42:37.949Z</time>
      </trkpt>
      <trkpt lat="44.2905" lon="0.49062">
        <ele>160.1</ele>
        <time>2022-07-28T09:42:50.949Z</time>
      </trkpt>
      <trkpt lat="44.29054" lon="0.49084">
        <ele>158.1</ele>
        <time>2022-07-28T09:43:03.949Z</time>
      </trkpt>
      <trkpt lat="44.29061" lon="0.49109">
        <ele>155.7</ele>
        <time>2022-07-28T09:43:16.949Z</time>
      </trkpt>
      <trkpt lat="44.29069" lon="0.49124">
        <ele>154.3</ele>
        <time>2022-07-28T09:43:30.949Z</time>
      </trkpt>
      <trkpt lat="44.29074" lon="0.49133">
        <ele>153.4</ele>
        <time>2022-07-28T09:43:43.949Z</time>
      </trkpt>
      <trkpt lat="44.29084" lon="0.49129">
        <ele>152.7</ele>
        <time>2022-07-28T09:44:57.969Z</time>
      </trkpt>
      <trkpt lat="44.29099" lon="0.49125">
        <ele>151.3</ele>
        <time>2022-07-28T09:45:10.969Z</time>
      </trkpt>
      <trkpt lat="44.29116" lon="0.4912">
        <ele>150</ele>
        <time>2022-07-28T09:45:23.969Z</time>
      </trkpt>
      <trkpt lat="44.29133" lon="0.49113">
        <ele>148.6</ele>
        <time>2022-07-28T09:45:37.969Z</time>
      </trkpt>
      <trkpt lat="44.29146" lon="0.49101">
        <ele>147.1</ele>
        <time>2022-07-28T09:45:50.969Z</time>
      </trkpt>
      <trkpt lat="44.29155" lon="0.49085">
        <ele>146.4</ele>
        <time>2022-07-28T09:46:03.969Z</time>
      </trkpt>
      <trkpt lat="44.29164" lon="0.49067">
        <ele>145.1</ele>
        <time>2022-07-28T09:46:16.969Z</time>
      </trkpt>
      <trkpt lat="44.29169" lon="0.49049">
        <ele>144.3</ele>
        <time>2022-07-28T09:46:29.969Z</time>
      </trkpt>
      <trkpt lat="44.29181" lon="0.49041">
        <ele>142.4</ele>
        <time>2022-07-28T09:46:43.969Z</time>
      </trkpt>
      <trkpt lat="44.29181" lon="0.49058">
        <ele>142.3</ele>
        <time>2022-07-28T09:46:56.969Z</time>
      </trkpt>
      <trkpt lat="44.29181" lon="0.49078">
        <ele>141.7</ele>
        <time>2022-07-28T09:47:09.969Z</time>
      </trkpt>
      <trkpt lat="44.29179" lon="0.49099">
        <ele>140.9</ele>
        <time>2022-07-28T09:47:22.969Z</time>
      </trkpt>
      <trkpt lat="44.29176" lon="0.4912">
        <ele>140.2</ele>
        <time>2022-07-28T09:47:35.969Z</time>
      </trkpt>
      <trkpt lat="44.29173" lon="0.49141">
        <ele>139.2</ele>
        <time>2022-07-28T09:47:49.969Z</time>
      </trkpt>
      <trkpt lat="44.2917" lon="0.49163">
        <ele>138.1</ele>
        <time>2022-07-28T09:48:02.969Z</time>
      </trkpt>
      <trkpt lat="44.29164" lon="0.49183">
        <ele>137.6</ele>
        <time>2022-07-28T09:48:15.969Z</time>
      </trkpt>
      <trkpt lat="44.29158" lon="0.49202">
        <ele>137.3</ele>
        <time>2022-07-28T09:48:28.969Z</time>
      </trkpt>
      <trkpt lat="44.29152" lon="0.49221">
        <ele>136.6</ele>
        <time>2022-07-28T09:48:41.969Z</time>
      </trkpt>
      <trkpt lat="44.29144" lon="0.49242">
        <ele>135.6</ele>
        <time>2022-07-28T09:48:55.969Z</time>
      </trkpt>
      <trkpt lat="44.29136" lon="0.49264">
        <ele>135.1</ele>
        <time>2022-07-28T09:49:08.969Z</time>
      </trkpt>
      <trkpt lat="44.29128" lon="0.4928">
        <ele>134.9</ele>
        <time>2022-07-28T09:49:21.969Z</time>
      </trkpt>
      <trkpt lat="44.2912" lon="0.49301">
        <ele>133.8</ele>
        <time>2022-07-28T09:49:34.969Z</time>
      </trkpt>
      <trkpt lat="44.2911" lon="0.49324">
        <ele>132.3</ele>
        <time>2022-07-28T09:49:48.969Z</time>
      </trkpt>
      <trkpt lat="44.29101" lon="0.49344">
        <ele>131.3</ele>
        <time>2022-07-28T09:50:01.969Z</time>
      </trkpt>
      <trkpt lat="44.29091" lon="0.49362">
        <ele>130.3</ele>
        <time>2022-07-28T09:50:14.969Z</time>
      </trkpt>
      <trkpt lat="44.29081" lon="0.49382">
        <ele>130.8</ele>
        <time>2022-07-28T09:50:27.969Z</time>
      </trkpt>
      <trkpt lat="44.29074" lon="0.49402">
        <ele>130.4</ele>
        <time>2022-07-28T09:50:40.969Z</time>
      </trkpt>
      <trkpt lat="44.29069" lon="0.49418">
        <ele>129.4</ele>
        <time>2022-07-28T09:50:54.969Z</time>
      </trkpt>
      <trkpt lat="44.29067" lon="0.49435">
        <ele>128.6</ele>
        <time>2022-07-28T09:51:07.969Z</time>
      </trkpt>
      <trkpt lat="44.2906" lon="0.49456">
        <ele>127.3</ele>
        <time>2022-07-28T09:51:20.969Z</time>
      </trkpt>
      <trkpt lat="44.29049" lon="0.49476">
        <ele>125.3</ele>
        <time>2022-07-28T09:51:33.969Z</time>
      </trkpt>
      <trkpt lat="44.29035" lon="0.49495">
        <ele>123.5</ele>
        <time>2022-07-28T09:51:46.969Z</time>
      </trkpt>
      <trkpt lat="44.29024" lon="0.49511">
        <ele>122.8</ele>
        <time>2022-07-28T09:52:00.969Z</time>
      </trkpt>
      <trkpt lat="44.29009" lon="0.49525">
        <ele>121.8</ele>
        <time>2022-07-28T09:52:13.969Z</time>
      </trkpt>
      <trkpt lat="44.28998" lon="0.49542">
        <ele>121.6</ele>
        <time>2022-07-28T09:52:26.969Z</time>
      </trkpt>
      <trkpt lat="44.28986" lon="0.4956">
        <ele>121.1</ele>
        <time>2022-07-28T09:52:39.969Z</time>
      </trkpt>
      <trkpt lat="44.28974" lon="0.49577">
        <ele>120.6</ele>
        <time>2022-07-28T09:52:52.969Z</time>
      </trkpt>
      <trkpt lat="44.28967" lon="0.49591">
        <ele>120.7</ele>
        <time>2022-07-28T09:53:06.969Z</time>
      </trkpt>
      <trkpt lat="44.28959" lon="0.49609">
        <ele>121</ele>
        <time>2022-07-28T09:53:19.969Z</time>
      </trkpt>
      <trkpt lat="44.28948" lon="0.49625">
        <ele>119.3</ele>
        <time>2022-07-28T09:53:32.969Z</time>
      </trkpt>
      <trkpt lat="44.28937" lon="0.49641">
        <ele>117</ele>
        <time>2022-07-28T09:53:45.969Z</time>
      </trkpt>
      <trkpt lat="44.28929" lon="0.4966">
        <ele>114.6</ele>
        <time>2022-07-28T09:53:58.969Z</time>
      </trkpt>
      <trkpt lat="44.28932" lon="0.49683">
        <ele>114.5</ele>
        <time>2022-07-28T09:54:12.969Z</time>
      </trkpt>
      <trkpt lat="44.28939" lon="0.497">
        <ele>114.9</ele>
        <time>2022-07-28T09:54:25.969Z</time>
      </trkpt>
      <trkpt lat="44.28949" lon="0.49711">
        <ele>115.8</ele>
        <time>2022-07-28T09:54:38.969Z</time>
      </trkpt>
      <trkpt lat="44.28956" lon="0.49716">
        <ele>117.1</ele>
        <time>2022-07-28T09:54:51.969Z</time>
      </trkpt>
      <trkpt lat="44.2897" lon="0.49728">
        <ele>118.6</ele>
        <time>2022-07-28T09:55:05.969Z</time>
      </trkpt>
      <trkpt lat="44.28985" lon="0.49742">
        <ele>118.3</ele>
        <time>2022-07-28T09:55:18.969Z</time>
      </trkpt>
      <trkpt lat="44.28999" lon="0.49755">
        <ele>118.5</ele>
        <time>2022-07-28T09:55:31.969Z</time>
      </trkpt>
      <trkpt lat="44.29013" lon="0.4977">
        <ele>117.4</ele>
        <time>2022-07-28T09:55:44.969Z</time>
      </trkpt>
      <trkpt lat="44.29029" lon="0.49784">
        <ele>117</ele>
        <time>2022-07-28T09:55:57.969Z</time>
      </trkpt>
      <trkpt lat="44.29043" lon="0.49803">
        <ele>115.3</ele>
        <time>2022-07-28T09:56:11.969Z</time>
      </trkpt>
      <trkpt lat="44.29055" lon="0.49819">
        <ele>114.9</ele>
        <time>2022-07-28T09:56:24.969Z</time>
      </trkpt>
      <trkpt lat="44.29065" lon="0.49834">
        <ele>114.9</ele>
        <time>2022-07-28T09:56:37.969Z</time>
      </trkpt>
      <trkpt lat="44.29078" lon="0.49852">
        <ele>115.2</ele>
        <time>2022-07-28T09:56:50.969Z</time>
      </trkpt>
      <trkpt lat="44.29089" lon="0.49868">
        <ele>115.5</ele>
        <time>2022-07-28T09:57:03.969Z</time>
      </trkpt>
      <trkpt lat="44.29099" lon="0.49883">
        <ele>116.1</ele>
        <time>2022-07-28T09:57:17.969Z</time>
      </trkpt>
      <trkpt lat="44.29114" lon="0.49901">
        <ele>116.7</ele>
        <time>2022-07-28T09:57:30.969Z</time>
      </trkpt>
      <trkpt lat="44.29127" lon="0.49919">
        <ele>117.1</ele>
        <time>2022-07-28T09:57:43.969Z</time>
      </trkpt>
      <trkpt lat="44.29139" lon="0.49936">
        <ele>116.7</ele>
        <time>2022-07-28T09:57:56.969Z</time>
      </trkpt>
      <trkpt lat="44.2915" lon="0.49953">
        <ele>116.7</ele>
        <time>2022-07-28T09:58:09.969Z</time>
      </trkpt>
      <trkpt lat="44.29159" lon="0.49974">
        <ele>115.9</ele>
        <time>2022-07-28T09:58:23.969Z</time>
      </trkpt>
      <trkpt lat="44.29168" lon="0.49992">
        <ele>114.8</ele>
        <time>2022-07-28T09:58:36.969Z</time>
      </trkpt>
      <trkpt lat="44.29175" lon="0.5001">
        <ele>114.5</ele>
        <time>2022-07-28T09:58:49.969Z</time>
      </trkpt>
      <trkpt lat="44.29177" lon="0.50032">
        <ele>112.1</ele>
        <time>2022-07-28T09:59:02.969Z</time>
      </trkpt>
      <trkpt lat="44.2918" lon="0.50054">
        <ele>111.1</ele>
        <time>2022-07-28T09:59:15.969Z</time>
      </trkpt>
      <trkpt lat="44.29176" lon="0.50062">
        <ele>110.7</ele>
        <time>2022-07-28T10:00:21.994Z</time>
      </trkpt>
      <trkpt lat="44.29175" lon="0.50066">
        <ele>110.6</ele>
        <time>2022-07-28T10:00:34.994Z</time>
      </trkpt>
      <trkpt lat="44.29177" lon="0.50063">
        <ele>110.7</ele>
        <time>2022-07-28T10:00:54.018Z</time>
      </trkpt>
      <trkpt lat="44.29187" lon="0.50069">
        <ele>110.9</ele>
        <time>2022-07-28T10:01:07.018Z</time>
      </trkpt>
      <trkpt lat="44.29199" lon="0.50076">
        <ele>111</ele>
        <time>2022-07-28T10:01:21.018Z</time>
      </trkpt>
      <trkpt lat="44.29215" lon="0.50084">
        <ele>111.5</ele>
        <time>2022-07-28T10:01:34.018Z</time>
      </trkpt>
      <trkpt lat="44.2923" lon="0.50088">
        <ele>111.7</ele>
        <time>2022-07-28T10:01:47.018Z</time>
      </trkpt>
      <trkpt lat="44.29247" lon="0.50093">
        <ele>111.8</ele>
        <time>2022-07-28T10:02:00.018Z</time>
      </trkpt>
      <trkpt lat="44.2926" lon="0.50103">
        <ele>111</ele>
        <time>2022-07-28T10:02:13.018Z</time>
      </trkpt>
      <trkpt lat="44.29269" lon="0.50112">
        <ele>110.7</ele>
        <time>2022-07-28T10:02:27.018Z</time>
      </trkpt>
      <trkpt lat="44.29283" lon="0.5012">
        <ele>111.5</ele>
        <time>2022-07-28T10:02:40.018Z</time>
      </trkpt>
      <trkpt lat="44.29291" lon="0.50134">
        <ele>112.7</ele>
        <time>2022-07-28T10:02:53.018Z</time>
      </trkpt>
      <trkpt lat="44.293" lon="0.50144">
        <ele>114.3</ele>
        <time>2022-07-28T10:03:06.018Z</time>
      </trkpt>
      <trkpt lat="44.29309" lon="0.50152">
        <ele>116.3</ele>
        <time>2022-07-28T10:03:19.018Z</time>
      </trkpt>
      <trkpt lat="44.29319" lon="0.50165">
        <ele>119.8</ele>
        <time>2022-07-28T10:03:33.018Z</time>
      </trkpt>
      <trkpt lat="44.29318" lon="0.5018">
        <ele>119.6</ele>
        <time>2022-07-28T10:03:46.018Z</time>
      </trkpt>
      <trkpt lat="44.29316" lon="0.50196">
        <ele>119.4</ele>
        <time>2022-07-28T10:03:59.018Z</time>
      </trkpt>
      <trkpt lat="44.29309" lon="0.50214">
        <ele>117.7</ele>
        <time>2022-07-28T10:04:12.018Z</time>
      </trkpt>
      <trkpt lat="44.29305" lon="0.50235">
        <ele>117.4</ele>
        <time>2022-07-28T10:04:25.018Z</time>
      </trkpt>
      <trkpt lat="44.29299" lon="0.50258">
        <ele>117.4</ele>
        <time>2022-07-28T10:04:39.018Z</time>
      </trkpt>
      <trkpt lat="44.29294" lon="0.50272">
        <ele>117.4</ele>
        <time>2022-07-28T10:04:52.018Z</time>
      </trkpt>
      <trkpt lat="44.29278" lon="0.50289">
        <ele>117.8</ele>
        <time>2022-07-28T10:05:05.018Z</time>
      </trkpt>
      <trkpt lat="44.29269" lon="0.50305">
        <ele>121.1</ele>
        <time>2022-07-28T10:05:18.018Z</time>
      </trkpt>
      <trkpt lat="44.29263" lon="0.50303">
        <ele>122.5</ele>
        <time>2022-07-28T10:05:31.018Z</time>
      </trkpt>
      <trkpt lat="44.29252" lon="0.50303">
        <ele>125</ele>
        <time>2022-07-28T10:05:45.018Z</time>
      </trkpt>
      <trkpt lat="44.29255" lon="0.50315">
        <ele>125.7</ele>
        <time>2022-07-28T10:05:58.018Z</time>
      </trkpt>
      <trkpt lat="44.29263" lon="0.50324">
        <ele>124.4</ele>
        <time>2022-07-28T10:06:11.018Z</time>
      </trkpt>
      <trkpt lat="44.29258" lon="0.50329">
        <ele>126.3</ele>
        <time>2022-07-28T10:06:24.018Z</time>
      </trkpt>
      <trkpt lat="44.2925" lon="0.50321">
        <ele>127.7</ele>
        <time>2022-07-28T10:06:37.018Z</time>
      </trkpt>
      <trkpt lat="44.2924" lon="0.50312">
        <ele>129.2</ele>
        <time>2022-07-28T10:06:51.018Z</time>
      </trkpt>
      <trkpt lat="44.29234" lon="0.50302">
        <ele>129.6</ele>
        <time>2022-07-28T10:07:04.018Z</time>
      </trkpt>
      <trkpt lat="44.29228" lon="0.50291">
        <ele>129.5</ele>
        <time>2022-07-28T10:07:17.018Z</time>
      </trkpt>
      <trkpt lat="44.29218" lon="0.50283">
        <ele>130.7</ele>
        <time>2022-07-28T10:07:30.018Z</time>
      </trkpt>
      <trkpt lat="44.29205" lon="0.50276">
        <ele>132.3</ele>
        <time>2022-07-28T10:07:44.018Z</time>
      </trkpt>
      <trkpt lat="44.29194" lon="0.50272">
        <ele>133.9</ele>
        <time>2022-07-28T10:07:57.018Z</time>
      </trkpt>
      <trkpt lat="44.29184" lon="0.50279">
        <ele>135.1</ele>
        <time>2022-07-28T10:08:10.018Z</time>
      </trkpt>
      <trkpt lat="44.29177" lon="0.50288">
        <ele>135.7</ele>
        <time>2022-07-28T10:08:23.018Z</time>
      </trkpt>
      <trkpt lat="44.29171" lon="0.50301">
        <ele>136.7</ele>
        <time>2022-07-28T10:08:36.018Z</time>
      </trkpt>
      <trkpt lat="44.29165" lon="0.50319">
        <ele>137.5</ele>
        <time>2022-07-28T10:08:50.018Z</time>
      </trkpt>
      <trkpt lat="44.2916" lon="0.50332">
        <ele>138.2</ele>
        <time>2022-07-28T10:09:03.018Z</time>
      </trkpt>
      <trkpt lat="44.29154" lon="0.50348">
        <ele>138.7</ele>
        <time>2022-07-28T10:09:16.018Z</time>
      </trkpt>
      <trkpt lat="44.29149" lon="0.50361">
        <ele>139</ele>
        <time>2022-07-28T10:09:29.018Z</time>
      </trkpt>
      <trkpt lat="44.29139" lon="0.50375">
        <ele>139.5</ele>
        <time>2022-07-28T10:09:42.018Z</time>
      </trkpt>
      <trkpt lat="44.2913" lon="0.5039">
        <ele>140.4</ele>
        <time>2022-07-28T10:09:56.018Z</time>
      </trkpt>
      <trkpt lat="44.29121" lon="0.50403">
        <ele>141.4</ele>
        <time>2022-07-28T10:10:09.018Z</time>
      </trkpt>
      <trkpt lat="44.29113" lon="0.50419">
        <ele>142.2</ele>
        <time>2022-07-28T10:10:22.018Z</time>
      </trkpt>
      <trkpt lat="44.29107" lon="0.50437">
        <ele>143.6</ele>
        <time>2022-07-28T10:10:35.018Z</time>
      </trkpt>
      <trkpt lat="44.29106" lon="0.50453">
        <ele>145.1</ele>
        <time>2022-07-28T10:10:48.018Z</time>
      </trkpt>
      <trkpt lat="44.29113" lon="0.50466">
        <ele>146.2</ele>
        <time>2022-07-28T10:11:02.018Z</time>
      </trkpt>
      <trkpt lat="44.29119" lon="0.5047">
        <ele>146.5</ele>
        <time>2022-07-28T10:11:15.018Z</time>
      </trkpt>
      <trkpt lat="44.29128" lon="0.50479">
        <ele>147</ele>
        <time>2022-07-28T10:11:28.018Z</time>
      </trkpt>
      <trkpt lat="44.29139" lon="0.50488">
        <ele>148.3</ele>
        <time>2022-07-28T10:11:41.018Z</time>
      </trkpt>
      <trkpt lat="44.2915" lon="0.50497">
        <ele>148.5</ele>
        <time>2022-07-28T10:11:54.018Z</time>
      </trkpt>
      <trkpt lat="44.29156" lon="0.505">
        <ele>148.1</ele>
        <time>2022-07-28T10:12:16.042Z</time>
      </trkpt>
      <trkpt lat="44.29164" lon="0.50508">
        <ele>148.4</ele>
        <time>2022-07-28T10:12:29.042Z</time>
      </trkpt>
      <trkpt lat="44.29175" lon="0.50516">
        <ele>148.5</ele>
        <time>2022-07-28T10:12:42.042Z</time>
      </trkpt>
      <trkpt lat="44.29185" lon="0.50523">
        <ele>148.5</ele>
        <time>2022-07-28T10:12:55.042Z</time>
      </trkpt>
      <trkpt lat="44.29185" lon="0.50541">
        <ele>150.1</ele>
        <time>2022-07-28T10:13:09.042Z</time>
      </trkpt>
      <trkpt lat="44.29181" lon="0.50548">
        <ele>151</ele>
        <time>2022-07-28T10:13:22.042Z</time>
      </trkpt>
      <trkpt lat="44.29176" lon="0.50558">
        <ele>151.8</ele>
        <time>2022-07-28T10:13:40.058Z</time>
      </trkpt>
      <trkpt lat="44.29171" lon="0.50568">
        <ele>152.7</ele>
        <time>2022-07-28T10:13:53.058Z</time>
      </trkpt>
      <trkpt lat="44.29165" lon="0.50581">
        <ele>154</ele>
        <time>2022-07-28T10:14:06.058Z</time>
      </trkpt>
      <trkpt lat="44.29161" lon="0.5059">
        <ele>154.9</ele>
        <time>2022-07-28T10:14:20.058Z</time>
      </trkpt>
      <trkpt lat="44.29157" lon="0.50598">
        <ele>155.9</ele>
        <time>2022-07-28T10:14:41.074Z</time>
      </trkpt>
      <trkpt lat="44.29157" lon="0.50609">
        <ele>156.9</ele>
        <time>2022-07-28T10:15:27.090Z</time>
      </trkpt>
      <trkpt lat="44.29153" lon="0.50611">
        <ele>157.5</ele>
        <time>2022-07-28T10:15:40.090Z</time>
      </trkpt>
      <trkpt lat="44.29141" lon="0.50605">
        <ele>158.1</ele>
        <time>2022-07-28T10:16:59.106Z</time>
      </trkpt>
      <trkpt lat="44.29123" lon="0.50604">
        <ele>158.5</ele>
        <time>2022-07-28T10:17:13.106Z</time>
      </trkpt>
      <trkpt lat="44.29108" lon="0.50604">
        <ele>158.7</ele>
        <time>2022-07-28T10:17:26.106Z</time>
      </trkpt>
      <trkpt lat="44.29091" lon="0.50605">
        <ele>158.2</ele>
        <time>2022-07-28T10:17:39.106Z</time>
      </trkpt>
      <trkpt lat="44.29076" lon="0.50611">
        <ele>158.4</ele>
        <time>2022-07-28T10:17:52.106Z</time>
      </trkpt>
      <trkpt lat="44.29061" lon="0.50616">
        <ele>158</ele>
        <time>2022-07-28T10:18:05.106Z</time>
      </trkpt>
      <trkpt lat="44.29043" lon="0.50618">
        <ele>157.2</ele>
        <time>2022-07-28T10:18:19.106Z</time>
      </trkpt>
      <trkpt lat="44.2903" lon="0.50622">
        <ele>156.9</ele>
        <time>2022-07-28T10:18:32.106Z</time>
      </trkpt>
      <trkpt lat="44.29017" lon="0.50627">
        <ele>156.9</ele>
        <time>2022-07-28T10:18:45.106Z</time>
      </trkpt>
      <trkpt lat="44.29002" lon="0.50638">
        <ele>157</ele>
        <time>2022-07-28T10:18:58.106Z</time>
      </trkpt>
      <trkpt lat="44.28988" lon="0.5065">
        <ele>158.5</ele>
        <time>2022-07-28T10:19:11.106Z</time>
      </trkpt>
      <trkpt lat="44.28972" lon="0.50661">
        <ele>159.8</ele>
        <time>2022-07-28T10:19:25.106Z</time>
      </trkpt>
      <trkpt lat="44.28959" lon="0.50674">
        <ele>161.9</ele>
        <time>2022-07-28T10:19:38.106Z</time>
      </trkpt>
      <trkpt lat="44.28945" lon="0.50686">
        <ele>163.6</ele>
        <time>2022-07-28T10:19:51.106Z</time>
      </trkpt>
      <trkpt lat="44.28931" lon="0.50697">
        <ele>164.5</ele>
        <time>2022-07-28T10:20:04.106Z</time>
      </trkpt>
      <trkpt lat="44.28915" lon="0.50708">
        <ele>165</ele>
        <time>2022-07-28T10:20:18.106Z</time>
      </trkpt>
      <trkpt lat="44.28901" lon="0.50718">
        <ele>165.6</ele>
        <time>2022-07-28T10:20:31.106Z</time>
      </trkpt>
      <trkpt lat="44.28886" lon="0.50729">
        <ele>166.3</ele>
        <time>2022-07-28T10:20:44.106Z</time>
      </trkpt>
      <trkpt lat="44.28872" lon="0.5074">
        <ele>166.9</ele>
        <time>2022-07-28T10:20:57.106Z</time>
      </trkpt>
      <trkpt lat="44.28859" lon="0.50751">
        <ele>167.2</ele>
        <time>2022-07-28T10:21:10.106Z</time>
      </trkpt>
      <trkpt lat="44.28846" lon="0.5076">
        <ele>168.3</ele>
        <time>2022-07-28T10:21:24.106Z</time>
      </trkpt>
      <trkpt lat="44.28836" lon="0.50769">
        <ele>168.9</ele>
        <time>2022-07-28T10:21:37.106Z</time>
      </trkpt>
      <trkpt lat="44.28829" lon="0.50764">
        <ele>169.1</ele>
        <time>2022-07-28T10:21:58.114Z</time>
      </trkpt>
      <trkpt lat="44.28825" lon="0.50752">
        <ele>169</ele>
        <time>2022-07-28T10:22:11.114Z</time>
      </trkpt>
      <trkpt lat="44.28823" lon="0.50745">
        <ele>168.9</ele>
        <time>2022-07-28T10:22:24.114Z</time>
      </trkpt>
    </trkseg>
  </trk>
</gpx>